Observation data for Kent I10-I20 Split on 03/01/2021      Previous  Date  Next       Current Mesonet Observations  Soil Data  Daily Summary Page  Observations in Plain Language
KKE1 010600Z 09011KT 07/M06 A3005 RMK A01 T00711062  RH  038%=      5-min Rain = 0
KKE1 010601Z 09010KT 07/M06 A3005 RMK A01 T00711063  RH  038%=      5-min Rain = 0
KKE1 010602Z 09010KT 07/M06 A3005 RMK A01 T00701063  RH  038%=      5-min Rain = 0
KKE1 010603Z 09009KT 07/M06 A3005 RMK A01 T00701063  RH  038%=      5-min Rain = 0
KKE1 010604Z 10010KT 07/M06 A3006 RMK A01 T00691064  RH  038%=      5-min Rain = 0
KKE1 010605Z 09011KT 07/M06 A3006 RMK A01 T00691063  RH  038%=      5-min Rain = 0
KKE1 010606Z 09010KT 07/M06 A3005 RMK A01 T00691064  RH  038%=      5-min Rain = 0
KKE1 010607Z 09011KT 07/M06 A3005 RMK A01 T00691064  RH  038%=      5-min Rain = 0
KKE1 010608Z 09010KT 07/M06 A3005 RMK A01 T00681064  RH  038%=      5-min Rain = 0
KKE1 010609Z 09010KT 07/M06 A3005 RMK A01 T00681064  RH  038%=      5-min Rain = 0
KKE1 010610Z 09012KT 07/M06 A3005 RMK A01 T00681064  RH  038%=      5-min Rain = 0
KKE1 010611Z 09012KT 07/M07 A3005 RMK A01 T00681065  RH  038%=      5-min Rain = 0
KKE1 010612Z 10010KT 07/M07 A3005 RMK A01 T00681065  RH  038%=      5-min Rain = 0
KKE1 010613Z 09011KT 07/M07 A3005 RMK A01 T00681065  RH  038%=      5-min Rain = 0
KKE1 010614Z 09012KT 07/M07 A3005 RMK A01 T00671065  RH  038%=      5-min Rain = 0
KKE1 010615Z 09012KT 07/M07 A3005 RMK A01 T00671065  RH  038%=      5-min Rain = 0
KKE1 010616Z 09012KT 07/M07 A3005 RMK A01 T00671065  RH  038%=      5-min Rain = 0
KKE1 010617Z 09011KT 07/M07 A3005 RMK A01 T00671066  RH  038%=      5-min Rain = 0
KKE1 010618Z 09012KT 07/M07 A3005 RMK A01 T00671066  RH  038%=      5-min Rain = 0
KKE1 010619Z 09011KT 07/M07 A3005 RMK A01 T00661066  RH  038%=      5-min Rain = 0
KKE1 010620Z 09011KT 07/M07 A3005 RMK A01 T00661066  RH  038%=      5-min Rain = 0
KKE1 010621Z 09011KT 07/M07 A3006 RMK A01 T00661066  RH  038%=      5-min Rain = 0
KKE1 010622Z 09012KT 07/M07 A3006 RMK A01 T00661067  RH  038%=      5-min Rain = 0
KKE1 010623Z 09011KT 07/M07 A3006 RMK A01 T00661066  RH  038%=      5-min Rain = 0
KKE1 010624Z 09010KT 07/M07 A3006 RMK A01 T00661067  RH  038%=      5-min Rain = 0
KKE1 010625Z 09009KT 07/M07 A3006 RMK A01 T00651067  RH  038%=      5-min Rain = 0
KKE1 010626Z 09009KT 06/M07 A3006 RMK A01 T00641067  RH  039%=      5-min Rain = 0
KKE1 010627Z 09011KT 06/M07 A3006 RMK A01 T00641066  RH  039%=      5-min Rain = 0
KKE1 010628Z 09011KT 06/M07 A3006 RMK A01 T00641067  RH  039%=      5-min Rain = 0
KKE1 010629Z 09010KT 06/M07 A3006 RMK A01 T00631067  RH  039%=      5-min Rain = 0
KKE1 010630Z 09011KT 06/M07 A3006 RMK A01 T00641068  RH  039%=      5-min Rain = 0
KKE1 010631Z 09010KT 06/M07 A3006 RMK A01 T00641068  RH  038%=      5-min Rain = 0
KKE1 010632Z 08011KT 06/M07 A3006 RMK A01 T00641068  RH  038%=      5-min Rain = 0
KKE1 010633Z 08010KT 07/M07 A3006 RMK A01 T00651068  RH  038%=      5-min Rain = 0
KKE1 010634Z 09012KT 07/M07 A3006 RMK A01 T00651068  RH  038%=      5-min Rain = 0
KKE1 010635Z 08010KT 07/M07 A3006 RMK A01 T00651068  RH  038%=      5-min Rain = 0
KKE1 010636Z 08011KT 07/M07 A3006 RMK A01 T00651068  RH  038%=      5-min Rain = 0
KKE1 010637Z 09010KT 07/M07 A3006 RMK A01 T00651068  RH  038%=      5-min Rain = 0
KKE1 010638Z 08011KT 07/M07 A3006 RMK A01 T00651068  RH  038%=      5-min Rain = 0
KKE1 010639Z 08010KT 07/M07 A3006 RMK A01 T00651068  RH  038%=      5-min Rain = 0
KKE1 010640Z 08011KT 06/M07 A3006 RMK A01 T00641069  RH  038%=      5-min Rain = 0
KKE1 010641Z 08011KT 06/M07 A3006 RMK A01 T00641068  RH  038%=      5-min Rain = 0
KKE1 010642Z 08009KT 06/M07 A3007 RMK A01 T00641068  RH  038%=      5-min Rain = 0
KKE1 010643Z 08011KT 06/M07 A3007 RMK A01 T00631069  RH  038%=      5-min Rain = 0
KKE1 010644Z 08011KT 06/M07 A3007 RMK A01 T00631068  RH  038%=      5-min Rain = 0
KKE1 010645Z 08012KT 06/M07 A3007 RMK A01 T00631069  RH  038%=      5-min Rain = 0
KKE1 010646Z 08011KT 06/M07 A3007 RMK A01 T00631069  RH  038%=      5-min Rain = 0
KKE1 010647Z 08010KT 06/M07 A3006 RMK A01 T00621069  RH  038%=      5-min Rain = 0
KKE1 010648Z 08010KT 06/M07 A3006 RMK A01 T00621069  RH  039%=      5-min Rain = 0
KKE1 010649Z 08012KT 06/M07 A3006 RMK A01 T00611069  RH  039%=      5-min Rain = 0
KKE1 010650Z 08011KT 06/M07 A3006 RMK A01 T00611069  RH  039%=      5-min Rain = 0
KKE1 010651Z 08013KT 06/M07 A3007 RMK A01 T00611069  RH  039%=      5-min Rain = 0
KKE1 010652Z 08011KT 06/M07 A3007 RMK A01 T00611069  RH  039%=      5-min Rain = 0
KKE1 010653Z 08012KT 06/M07 A3007 RMK A01 T00611069  RH  039%=      5-min Rain = 0
KKE1 010654Z 08010KT 06/M07 A3007 RMK A01 T00611068  RH  039%=      5-min Rain = 0
KKE1 010655Z 08012KT 06/M07 A3007 RMK A01 T00611068  RH  039%=      5-min Rain = 0
KKE1 010656Z 08011KT 06/M07 A3007 RMK A01 T00601069  RH  039%=      5-min Rain = 0
KKE1 010657Z 08010KT 06/M07 A3007 RMK A01 T00601069  RH  039%=      5-min Rain = 0
KKE1 010658Z 08012KT 06/M07 A3008 RMK A01 T00601069  RH  039%=      5-min Rain = 0
KKE1 010659Z 08011G16KT 06/M07 A3008 RMK A01 T00601069  RH  039%=      5-min Rain = 0
KKE1 010700Z 09013KT 06/M07 A3008 RMK A01 T00601069  RH  039%=      5-min Rain = 0
KKE1 010701Z 09011KT 06/M07 A3008 RMK A01 T00611070  RH  039%=      5-min Rain = 0
KKE1 010702Z 09015KT 06/M07 A3008 RMK A01 T00611071  RH  038%=      5-min Rain = 0
KKE1 010703Z 09016KT 06/M07 A3009 RMK A01 T00631071  RH  038%=      5-min Rain = 0
KKE1 010704Z 09014KT 06/M07 A3009 RMK A01 T00631073  RH  037%=      5-min Rain = 0
KKE1 010705Z 09016KT 06/M07 A3009 RMK A01 T00641074  RH  037%=      5-min Rain = 0
KKE1 010706Z 09013KT 06/M08 A3009 RMK A01 T00641075  RH  036%=      5-min Rain = 0
KKE1 010707Z 10013KT 06/M08 A3009 RMK A01 T00641075  RH  036%=      5-min Rain = 0
KKE1 010708Z 09015KT 06/M08 A3009 RMK A01 T00641075  RH  036%=      5-min Rain = 0
KKE1 010709Z 09014KT 06/M08 A3009 RMK A01 T00631076  RH  036%=      5-min Rain = 0
KKE1 010710Z 09013KT 06/M08 A3009 RMK A01 T00631077  RH  036%=      5-min Rain = 0
KKE1 010711Z 09015KT 06/M08 A3009 RMK A01 T00631078  RH  036%=      5-min Rain = 0
KKE1 010712Z 09015KT 06/M08 A3009 RMK A01 T00631080  RH  035%=      5-min Rain = 0
KKE1 010713Z 09013KT 06/M08 A3009 RMK A01 T00631081  RH  035%=      5-min Rain = 0
KKE1 010714Z 09013KT 06/M08 A3009 RMK A01 T00631081  RH  035%=      5-min Rain = 0
KKE1 010715Z 09015G21KT 06/M08 A3009 RMK A01 T00631081  RH  035%=      5-min Rain = 0
KKE1 010716Z 09018KT 06/M08 A3009 RMK A01 T00631081  RH  035%=      5-min Rain = 0
KKE1 010717Z 09012KT 06/M08 A3009 RMK A01 T00631082  RH  035%=      5-min Rain = 0
KKE1 010718Z 09014KT 06/M08 A301 RMK A01 T00621082  RH  035%=      5-min Rain = 0
KKE1 010719Z 09014KT 06/M08 A301 RMK A01 T00621082  RH  035%=      5-min Rain = 0
KKE1 010720Z 09012KT 06/M08 A301 RMK A01 T00621082  RH  035%=      5-min Rain = 0
KKE1 010721Z 08012KT 06/M08 A301 RMK A01 T00621081  RH  035%=      5-min Rain = 0
KKE1 010722Z 08013KT 06/M08 A301 RMK A01 T00611081  RH  035%=      5-min Rain = 0
KKE1 010723Z 08013KT 06/M08 A301 RMK A01 T00611081  RH  035%=      5-min Rain = 0
KKE1 010724Z 08012KT 06/M08 A301 RMK A01 T00611081  RH  035%=      5-min Rain = 0
KKE1 010725Z 08012KT 06/M08 A301 RMK A01 T00611081  RH  035%=      5-min Rain = 0
KKE1 010726Z 07013KT 06/M08 A301 RMK A01 T00601081  RH  036%=      5-min Rain = 0
KKE1 010727Z 07012KT 06/M08 A301 RMK A01 T00601081  RH  036%=      5-min Rain = 0
KKE1 010728Z 07013KT 06/M08 A301 RMK A01 T00591081  RH  036%=      5-min Rain = 0
KKE1 010729Z 07014KT 06/M08 A301 RMK A01 T00601082  RH  036%=      5-min Rain = 0
KKE1 010730Z 08013KT 06/M08 A301 RMK A01 T00591082  RH  035%=      5-min Rain = 0
KKE1 010731Z 07014KT 06/M08 A301 RMK A01 T00601082  RH  035%=      5-min Rain = 0
KKE1 010732Z 08013KT 06/M08 A301 RMK A01 T00591082  RH  035%=      5-min Rain = 0
KKE1 010733Z 07013KT 06/M08 A301 RMK A01 T00591082  RH  035%=      5-min Rain = 0
KKE1 010734Z 08014KT 06/M08 A301 RMK A01 T00591082  RH  035%=      5-min Rain = 0
KKE1 010735Z 08013KT 06/M08 A301 RMK A01 T00601082  RH  035%=      5-min Rain = 0
KKE1 010736Z 08011KT 06/M08 A301 RMK A01 T00591082  RH  035%=      5-min Rain = 0
KKE1 010737Z 08013KT 06/M08 A301 RMK A01 T00591082  RH  035%=      5-min Rain = 0
KKE1 010738Z 07013KT 06/M08 A301 RMK A01 T00581082  RH  036%=      5-min Rain = 0
KKE1 010739Z 08013KT 06/M08 A3011 RMK A01 T00591083  RH  035%=      5-min Rain = 0
KKE1 010740Z 08012KT 06/M08 A3011 RMK A01 T00591083  RH  035%=      5-min Rain = 0
KKE1 010741Z 08011KT 06/M08 A3011 RMK A01 T00581083  RH  036%=      5-min Rain = 0
KKE1 010742Z 08012KT 06/M08 A3011 RMK A01 T00581083  RH  036%=      5-min Rain = 0
KKE1 010743Z 08012KT 06/M08 A3011 RMK A01 T00581083  RH  036%=      5-min Rain = 0
KKE1 010744Z 08012KT 06/M08 A3011 RMK A01 T00581083  RH  036%=      5-min Rain = 0
KKE1 010745Z 08011KT 06/M08 A3011 RMK A01 T00581083  RH  036%=      5-min Rain = 0
KKE1 010746Z 07012KT 06/M08 A3011 RMK A01 T00581083  RH  036%=      5-min Rain = 0
KKE1 010747Z 07013KT 06/M08 A3011 RMK A01 T00581083  RH  036%=      5-min Rain = 0
KKE1 010748Z 07010KT 06/M08 A3011 RMK A01 T00581084  RH  035%=      5-min Rain = 0
KKE1 010749Z 07009KT 06/M08 A3011 RMK A01 T00581083  RH  035%=      5-min Rain = 0
KKE1 010750Z 07009KT 06/M08 A3011 RMK A01 T00571083  RH  036%=      5-min Rain = 0
KKE1 010751Z 07009KT 06/M08 A3011 RMK A01 T00571083  RH  036%=      5-min Rain = 0
KKE1 010752Z 07009KT 06/M08 A3011 RMK A01 T00561083  RH  036%=      5-min Rain = 0
KKE1 010753Z 07008KT 06/M08 A3011 RMK A01 T00551083  RH  036%=      5-min Rain = 0
KKE1 010754Z 07009KT 06/M08 A3011 RMK A01 T00551083  RH  036%=      5-min Rain = 0
KKE1 010755Z 07009KT 06/M08 A3011 RMK A01 T00551083  RH  036%=      5-min Rain = 0
KKE1 010756Z 07008KT 06/M08 A3011 RMK A01 T00551083  RH  036%=      5-min Rain = 0
KKE1 010757Z 07009KT 05/M08 A3011 RMK A01 T00541083  RH  036%=      5-min Rain = 0
KKE1 010758Z 07009KT 05/M08 A3011 RMK A01 T00541083  RH  037%=      5-min Rain = 0
KKE1 010759Z 07007KT 05/M08 A3012 RMK A01 T00541083  RH  037%=      5-min Rain = 0
KKE1 010800Z 06007KT 05/M08 A3012 RMK A01 T00531083  RH  037%=      5-min Rain = 0
KKE1 010801Z 07008KT 05/M08 A3012 RMK A01 T00531083  RH  037%=      5-min Rain = 0
KKE1 010802Z 06008KT 05/M08 A3012 RMK A01 T00521083  RH  037%=      5-min Rain = 0
KKE1 010803Z 06009KT 05/M08 A3012 RMK A01 T00521083  RH  037%=      5-min Rain = 0
KKE1 010804Z 07009KT 05/M08 A3012 RMK A01 T00511083  RH  037%=      5-min Rain = 0
KKE1 010805Z 06008KT 05/M08 A3012 RMK A01 T00511082  RH  037%=      5-min Rain = 0
KKE1 010806Z 07008KT 05/M08 A3012 RMK A01 T00511083  RH  037%=      5-min Rain = 0
KKE1 010807Z 06008KT 05/M08 A3012 RMK A01 T00511083  RH  037%=      5-min Rain = 0
KKE1 010808Z 06009KT 05/M08 A3012 RMK A01 T00511083  RH  037%=      5-min Rain = 0
KKE1 010809Z 07008KT 05/M08 A3012 RMK A01 T00511083  RH  037%=      5-min Rain = 0
KKE1 010810Z 07007KT 05/M08 A3012 RMK A01 T00511083  RH  037%=      5-min Rain = 0
KKE1 010811Z 07008KT 05/M08 A3012 RMK A01 T00511083  RH  037%=      5-min Rain = 0
KKE1 010812Z 07008KT 05/M08 A3012 RMK A01 T00511083  RH  037%=      5-min Rain = 0
KKE1 010813Z 07008KT 05/M08 A3012 RMK A01 T00511083  RH  037%=      5-min Rain = 0
KKE1 010814Z 07007KT 05/M08 A3012 RMK A01 T00511083  RH  037%=      5-min Rain = 0
KKE1 010815Z 07007KT 05/M08 A3012 RMK A01 T00501083  RH  038%=      5-min Rain = 0
KKE1 010816Z 07007KT 05/M08 A3012 RMK A01 T00501083  RH  038%=      5-min Rain = 0
KKE1 010817Z 07008KT 05/M08 A3012 RMK A01 T00491083  RH  038%=      5-min Rain = 0
KKE1 010818Z 07008KT 05/M08 A3012 RMK A01 T00491083  RH  038%=      5-min Rain = 0
KKE1 010819Z 07008KT 05/M08 A3012 RMK A01 T00491083  RH  038%=      5-min Rain = 0
KKE1 010820Z 06007KT 05/M08 A3013 RMK A01 T00481083  RH  038%=      5-min Rain = 0
KKE1 010821Z 07007KT 05/M08 A3013 RMK A01 T00481083  RH  038%=      5-min Rain = 0
KKE1 010822Z 06007KT 05/M08 A3013 RMK A01 T00471083  RH  038%=      5-min Rain = 0
KKE1 010823Z 07006KT 05/M08 A3013 RMK A01 T00471082  RH  038%=      5-min Rain = 0
KKE1 010824Z 07006KT 05/M08 A3013 RMK A01 T00471083  RH  039%=      5-min Rain = 0
KKE1 010825Z 07006KT 05/M08 A3013 RMK A01 T00461083  RH  039%=      5-min Rain = 0
KKE1 010826Z 07007KT 05/M08 A3013 RMK A01 T00461083  RH  039%=      5-min Rain = 0
KKE1 010827Z 06007KT 05/M08 A3013 RMK A01 T00461082  RH  039%=      5-min Rain = 0
KKE1 010828Z 07006KT 05/M08 A3013 RMK A01 T00461082  RH  039%=      5-min Rain = 0
KKE1 010829Z 07007KT 05/M08 A3013 RMK A01 T00461082  RH  039%=      5-min Rain = 0
KKE1 010830Z 07005KT 05/M08 A3013 RMK A01 T00461082  RH  039%=      5-min Rain = 0
KKE1 010831Z 07005KT 05/M08 A3013 RMK A01 T00451083  RH  039%=      5-min Rain = 0
KKE1 010832Z 07006KT 05/M08 A3013 RMK A01 T00451083  RH  039%=      5-min Rain = 0
KKE1 010833Z 07006KT 05/M08 A3013 RMK A01 T00451082  RH  039%=      5-min Rain = 0
KKE1 010834Z 07007KT 05/M08 A3013 RMK A01 T00451082  RH  039%=      5-min Rain = 0
KKE1 010835Z 07007KT 04/M08 A3013 RMK A01 T00441083  RH  039%=      5-min Rain = 0
KKE1 010836Z 07007KT 04/M08 A3013 RMK A01 T00441083  RH  039%=      5-min Rain = 0
KKE1 010837Z 07007KT 04/M08 A3013 RMK A01 T00431083  RH  039%=      5-min Rain = 0
KKE1 010838Z 07007KT 04/M08 A3013 RMK A01 T00431083  RH  039%=      5-min Rain = 0
KKE1 010839Z 07007KT 04/M08 A3013 RMK A01 T00431083  RH  040%=      5-min Rain = 0
KKE1 010840Z 07007KT 04/M08 A3013 RMK A01 T00431083  RH  040%=      5-min Rain = 0
KKE1 010841Z 06007KT 04/M08 A3013 RMK A01 T00421083  RH  040%=      5-min Rain = 0
KKE1 010842Z 06007KT 04/M08 A3013 RMK A01 T00421083  RH  040%=      5-min Rain = 0
KKE1 010843Z 06006KT 04/M08 A3013 RMK A01 T00421083  RH  040%=      5-min Rain = 0
KKE1 010844Z 06007KT 04/M08 A3013 RMK A01 T00411084  RH  040%=      5-min Rain = 0
KKE1 010845Z 06008KT 04/M08 A3013 RMK A01 T00421084  RH  039%=      5-min Rain = 0
KKE1 010846Z 06007KT 04/M08 A3013 RMK A01 T00431084  RH  039%=      5-min Rain = 0
KKE1 010847Z 05007KT 04/M08 A3014 RMK A01 T00441084  RH  039%=      5-min Rain = 0
KKE1 010848Z 06008KT 04/M08 A3014 RMK A01 T00441084  RH  039%=      5-min Rain = 0
KKE1 010849Z 06008KT 05/M08 A3014 RMK A01 T00451084  RH  038%=      5-min Rain = 0
KKE1 010850Z 06007KT 05/M09 A3014 RMK A01 T00451085  RH  038%=      5-min Rain = 0
KKE1 010851Z 05008KT 05/M09 A3014 RMK A01 T00451085  RH  038%=      5-min Rain = 0
KKE1 010852Z 06008KT 05/M09 A3014 RMK A01 T00451085  RH  038%=      5-min Rain = 0
KKE1 010853Z 05009KT 05/M09 A3014 RMK A01 T00451085  RH  038%=      5-min Rain = 0
KKE1 010854Z 05007KT 05/M09 A3014 RMK A01 T00461085  RH  038%=      5-min Rain = 0
KKE1 010855Z 05007KT 05/M09 A3014 RMK A01 T00461085  RH  038%=      5-min Rain = 0
KKE1 010856Z 05008KT 05/M09 A3015 RMK A01 T00461086  RH  038%=      5-min Rain = 0
KKE1 010857Z 05008KT 05/M09 A3015 RMK A01 T00461086  RH  038%=      5-min Rain = 0
KKE1 010858Z 05009KT 05/M09 A3015 RMK A01 T00461086  RH  038%=      5-min Rain = 0
KKE1 010859Z 05008KT 05/M09 A3015 RMK A01 T00461086  RH  038%=      5-min Rain = 0
KKE1 010900Z 05007KT 05/M09 A3015 RMK A01 T00471086  RH  037%=      5-min Rain = 0
KKE1 010901Z 05008KT 05/M09 A3015 RMK A01 T00481086  RH  037%=      5-min Rain = 0
KKE1 010902Z 06008KT 05/M09 A3014 RMK A01 T00471086  RH  037%=      5-min Rain = 0
KKE1 010903Z 06007KT 05/M09 A3014 RMK A01 T00471086  RH  037%=      5-min Rain = 0
KKE1 010904Z 06008KT 05/M09 A3014 RMK A01 T00461087  RH  037%=      5-min Rain = 0
KKE1 010905Z 05008KT 05/M09 A3015 RMK A01 T00461087  RH  037%=      5-min Rain = 0
KKE1 010906Z 06007KT 05/M09 A3015 RMK A01 T00461087  RH  037%=      5-min Rain = 0
KKE1 010907Z 06008KT 05/M09 A3014 RMK A01 T00461086  RH  038%=      5-min Rain = 0
KKE1 010908Z 06008KT 05/M09 A3014 RMK A01 T00461087  RH  038%=      5-min Rain = 0
KKE1 010909Z 05007KT 05/M09 A3014 RMK A01 T00451087  RH  038%=      5-min Rain = 0
KKE1 010910Z 06008KT 05/M09 A3014 RMK A01 T00451087  RH  038%=      5-min Rain = 0
KKE1 010911Z 05007KT 05/M09 A3014 RMK A01 T00451086  RH  038%=      5-min Rain = 0
KKE1 010912Z 05008KT 04/M09 A3014 RMK A01 T00441087  RH  038%=      5-min Rain = 0
KKE1 010913Z 06008KT 05/M09 A3014 RMK A01 T00451087  RH  038%=      5-min Rain = 0
KKE1 010914Z 06008KT 05/M09 A3014 RMK A01 T00451087  RH  038%=      5-min Rain = 0
KKE1 010915Z 05008KT 04/M09 A3014 RMK A01 T00441087  RH  038%=      5-min Rain = 0
KKE1 010916Z 06006KT 04/M09 A3014 RMK A01 T00441087  RH  038%=      5-min Rain = 0
KKE1 010917Z 05007KT 04/M09 A3014 RMK A01 T00431087  RH  038%=      5-min Rain = 0
KKE1 010918Z 05008KT 04/M09 A3014 RMK A01 T00431087  RH  038%=      5-min Rain = 0
KKE1 010919Z 05009KT 04/M09 A3015 RMK A01 T00431087  RH  038%=      5-min Rain = 0
KKE1 010920Z 06008KT 04/M09 A3015 RMK A01 T00441087  RH  038%=      5-min Rain = 0
KKE1 010921Z 05008KT 04/M09 A3015 RMK A01 T00441087  RH  038%=      5-min Rain = 0
KKE1 010922Z 06009KT 04/M09 A3015 RMK A01 T00441088  RH  038%=      5-min Rain = 0
KKE1 010923Z 06008KT 05/M09 A3015 RMK A01 T00451087  RH  038%=      5-min Rain = 0
KKE1 010924Z 06008KT 05/M09 A3015 RMK A01 T00451088  RH  038%=      5-min Rain = 0
KKE1 010925Z 06008KT 05/M09 A3015 RMK A01 T00451088  RH  038%=      5-min Rain = 0
KKE1 010926Z 06007KT 05/M09 A3015 RMK A01 T00451088  RH  038%=      5-min Rain = 0
KKE1 010927Z 05007KT 04/M09 A3015 RMK A01 T00441088  RH  038%=      5-min Rain = 0
KKE1 010928Z 05007KT 04/M09 A3015 RMK A01 T00431088  RH  038%=      5-min Rain = 0
KKE1 010929Z 05008KT 04/M09 A3015 RMK A01 T00431088  RH  038%=      5-min Rain = 0
KKE1 010930Z 05007KT 04/M09 A3015 RMK A01 T00431088  RH  038%=      5-min Rain = 0
KKE1 010931Z 05007KT 04/M09 A3015 RMK A01 T00431088  RH  038%=      5-min Rain = 0
KKE1 010932Z 05007KT 04/M09 A3015 RMK A01 T00431088  RH  038%=      5-min Rain = 0
KKE1 010933Z 05007KT 04/M09 A3015 RMK A01 T00421088  RH  038%=      5-min Rain = 0
KKE1 010934Z 05007KT 04/M09 A3015 RMK A01 T00421088  RH  038%=      5-min Rain = 0
KKE1 010935Z 05007KT 04/M09 A3015 RMK A01 T00421088  RH  038%=      5-min Rain = 0
KKE1 010936Z 05007KT 04/M09 A3015 RMK A01 T00421088  RH  038%=      5-min Rain = 0
KKE1 010937Z 05006KT 04/M09 A3015 RMK A01 T00421088  RH  038%=      5-min Rain = 0
KKE1 010938Z 05007KT 04/M09 A3015 RMK A01 T00421088  RH  038%=      5-min Rain = 0
KKE1 010939Z 05006KT 04/M09 A3015 RMK A01 T00421088  RH  038%=      5-min Rain = 0
KKE1 010940Z 04006KT 04/M09 A3015 RMK A01 T00421089  RH  038%=      5-min Rain = 0
KKE1 010941Z 04004KT 04/M09 A3015 RMK A01 T00421089  RH  038%=      5-min Rain = 0
KKE1 010942Z 04005KT 04/M09 A3015 RMK A01 T00411089  RH  038%=      5-min Rain = 0
KKE1 010943Z 04004KT 04/M09 A3015 RMK A01 T00391089  RH  039%=      5-min Rain = 0
KKE1 010944Z 04004KT 04/M09 A3015 RMK A01 T00381089  RH  039%=      5-min Rain = 0
KKE1 010945Z 04004KT 04/M09 A3015 RMK A01 T00371089  RH  039%=      5-min Rain = 0
KKE1 010946Z 04004KT 04/M09 A3015 RMK A01 T00361089  RH  039%=      5-min Rain = 0
KKE1 010947Z 05004KT 04/M09 A3015 RMK A01 T00361089  RH  040%=      5-min Rain = 0
KKE1 010948Z 04005KT 04/M09 A3015 RMK A01 T00361089  RH  040%=      5-min Rain = 0
KKE1 010949Z 04005KT 04/M09 A3015 RMK A01 T00361089  RH  040%=      5-min Rain = 0
KKE1 010950Z 05004KT 04/M09 A3015 RMK A01 T00351089  RH  040%=      5-min Rain = 0
KKE1 010951Z 05004KT 04/M09 A3015 RMK A01 T00351089  RH  040%=      5-min Rain = 0
KKE1 010952Z 05004KT 03/M09 A3015 RMK A01 T00341089  RH  040%=      5-min Rain = 0
KKE1 010953Z 05004KT 03/M09 A3015 RMK A01 T00341090  RH  040%=      5-min Rain = 0
KKE1 010954Z 05004KT 03/M09 A3015 RMK A01 T00341090  RH  040%=      5-min Rain = 0
KKE1 010955Z 05005KT 03/M09 A3015 RMK A01 T00331091  RH  040%=      5-min Rain = 0
KKE1 010956Z 04005KT 03/M09 A3015 RMK A01 T00331091  RH  040%=      5-min Rain = 0
KKE1 010957Z 04005KT 03/M09 A3015 RMK A01 T00331092  RH  039%=      5-min Rain = 0
KKE1 010958Z 04006KT 03/M09 A3015 RMK A01 T00331093  RH  039%=      5-min Rain = 0
KKE1 010959Z 04005KT 03/M09 A3015 RMK A01 T00331093  RH  039%=      5-min Rain = 0
KKE1 011000Z 04005KT 03/M09 A3015 RMK A01 T00331093  RH  039%=      5-min Rain = 0
KKE1 011001Z 04005KT 03/M09 A3015 RMK A01 T00331093  RH  039%=      5-min Rain = 0
KKE1 011002Z 04005KT 03/M09 A3015 RMK A01 T00331093  RH  039%=      5-min Rain = 0
KKE1 011003Z 04006KT 03/M09 A3015 RMK A01 T00331093  RH  039%=      5-min Rain = 0
KKE1 011004Z 04005KT 03/M09 A3015 RMK A01 T00321093  RH  039%=      5-min Rain = 0
KKE1 011005Z 03005KT 03/M09 A3015 RMK A01 T00311094  RH  039%=      5-min Rain = 0
KKE1 011006Z 04005KT 03/M09 A3015 RMK A01 T00311094  RH  039%=      5-min Rain = 0
KKE1 011007Z 04005KT 03/M09 A3015 RMK A01 T00301094  RH  040%=      5-min Rain = 0
KKE1 011008Z 04005KT 03/M09 A3015 RMK A01 T00301094  RH  040%=      5-min Rain = 0
KKE1 011009Z 04005KT 03/M09 A3015 RMK A01 T00291094  RH  040%=      5-min Rain = 0
KKE1 011010Z 04005KT 03/M09 A3015 RMK A01 T00291094  RH  040%=      5-min Rain = 0
KKE1 011011Z 04004KT 03/M09 A3016 RMK A01 T00291094  RH  040%=      5-min Rain = 0
KKE1 011012Z 03005KT 03/M09 A3016 RMK A01 T00291094  RH  040%=      5-min Rain = 0
KKE1 011013Z 04005KT 03/M09 A3016 RMK A01 T00291094  RH  040%=      5-min Rain = 0
KKE1 011014Z 03005KT 03/M10 A3016 RMK A01 T00291095  RH  040%=      5-min Rain = 0
KKE1 011015Z 03005KT 03/M10 A3016 RMK A01 T00281095  RH  040%=      5-min Rain = 0
KKE1 011016Z 04006KT 03/M10 A3016 RMK A01 T00281095  RH  040%=      5-min Rain = 0
KKE1 011017Z 04005KT 03/M10 A3016 RMK A01 T00281095  RH  040%=      5-min Rain = 0
KKE1 011018Z 04005KT 03/M10 A3016 RMK A01 T00291095  RH  040%=      5-min Rain = 0
KKE1 011019Z 04006KT 03/M10 A3016 RMK A01 T00291095  RH  040%=      5-min Rain = 0
KKE1 011020Z 05006KT 03/M10 A3016 RMK A01 T00291095  RH  040%=      5-min Rain = 0
KKE1 011021Z 04007KT 03/M09 A3016 RMK A01 T00311094  RH  039%=      5-min Rain = 0
KKE1 011022Z 05007KT 03/M09 A3016 RMK A01 T00331094  RH  039%=      5-min Rain = 0
KKE1 011023Z 05007KT 03/M09 A3017 RMK A01 T00341093  RH  039%=      5-min Rain = 0
KKE1 011024Z 04005KT 04/M09 A3017 RMK A01 T00351093  RH  039%=      5-min Rain = 0
KKE1 011025Z 04005KT 03/M09 A3017 RMK A01 T00341094  RH  038%=      5-min Rain = 0
KKE1 011026Z 03007KT 03/M09 A3017 RMK A01 T00341094  RH  038%=      5-min Rain = 0
KKE1 011027Z 03005KT 03/M09 A3017 RMK A01 T00341094  RH  038%=      5-min Rain = 0
KKE1 011028Z 04005KT 03/M10 A3017 RMK A01 T00331095  RH  039%=      5-min Rain = 0
KKE1 011029Z 04005KT 03/M10 A3017 RMK A01 T00321095  RH  039%=      5-min Rain = 0
KKE1 011030Z 04005KT 03/M10 A3017 RMK A01 T00311095  RH  039%=      5-min Rain = 0
KKE1 011031Z 04005KT 03/M09 A3017 RMK A01 T00311094  RH  039%=      5-min Rain = 0
KKE1 011032Z 04006KT 03/M10 A3017 RMK A01 T00301095  RH  039%=      5-min Rain = 0
KKE1 011033Z 03005KT 03/M10 A3017 RMK A01 T00291095  RH  039%=      5-min Rain = 0
KKE1 011034Z 03006KT 03/M10 A3017 RMK A01 T00291095  RH  040%=      5-min Rain = 0
KKE1 011035Z 03006KT 03/M10 A3017 RMK A01 T00291095  RH  040%=      5-min Rain = 0
KKE1 011036Z 03006KT 03/M10 A3017 RMK A01 T00281095  RH  040%=      5-min Rain = 0
KKE1 011037Z 02005KT 03/M10 A3017 RMK A01 T00281095  RH  040%=      5-min Rain = 0
KKE1 011038Z 02005KT 03/M10 A3017 RMK A01 T00281095  RH  040%=      5-min Rain = 0
KKE1 011039Z 02004KT 03/M10 A3017 RMK A01 T00271095  RH  040%=      5-min Rain = 0
KKE1 011040Z 02005KT 03/M10 A3017 RMK A01 T00261095  RH  040%=      5-min Rain = 0
KKE1 011041Z 02005KT 03/M10 A3017 RMK A01 T00261095  RH  041%=      5-min Rain = 0
KKE1 011042Z 02005KT 03/M10 A3017 RMK A01 T00251095  RH  041%=      5-min Rain = 0
KKE1 011043Z 03005KT 03/M10 A3017 RMK A01 T00251095  RH  041%=      5-min Rain = 0
KKE1 011044Z 04006KT 03/M10 A3018 RMK A01 T00251095  RH  041%=      5-min Rain = 0
KKE1 011045Z 04006KT 03/M10 A3018 RMK A01 T00261095  RH  041%=      5-min Rain = 0
KKE1 011046Z 04005KT 03/M09 A3018 RMK A01 T00261094  RH  041%=      5-min Rain = 0
KKE1 011047Z 04005KT 03/M09 A3018 RMK A01 T00261094  RH  041%=      5-min Rain = 0
KKE1 011048Z 04005KT 03/M09 A3018 RMK A01 T00271094  RH  040%=      5-min Rain = 0
KKE1 011049Z 05004KT 03/M10 A3018 RMK A01 T00271095  RH  040%=      5-min Rain = 0
KKE1 011050Z 04005KT 03/M09 A3018 RMK A01 T00281094  RH  040%=      5-min Rain = 0
KKE1 011051Z 04006KT 03/M10 A3018 RMK A01 T00281095  RH  040%=      5-min Rain = 0
KKE1 011052Z 04006KT 03/M10 A3018 RMK A01 T00281095  RH  040%=      5-min Rain = 0
KKE1 011053Z 03006KT 03/M10 A3018 RMK A01 T00291095  RH  040%=      5-min Rain = 0
KKE1 011054Z 03007KT 03/M10 A3018 RMK A01 T00291095  RH  040%=      5-min Rain = 0
KKE1 011055Z 04007KT 03/M10 A3018 RMK A01 T00291095  RH  039%=      5-min Rain = 0
KKE1 011056Z 03007KT 03/M10 A3018 RMK A01 T00301095  RH  039%=      5-min Rain = 0
KKE1 011057Z 02006KT 03/M10 A3018 RMK A01 T00311095  RH  039%=      5-min Rain = 0
KKE1 011058Z 03007KT 03/M10 A3018 RMK A01 T00311095  RH  039%=      5-min Rain = 0
KKE1 011059Z 03008KT 03/M10 A3018 RMK A01 T00311096  RH  039%=      5-min Rain = 0
KKE1 011100Z 03007KT 03/M10 A3018 RMK A01 T00311095  RH  039%=      5-min Rain = 0
KKE1 011101Z 03008KT 03/M10 A3018 RMK A01 T00311095  RH  039%=      5-min Rain = 0
KKE1 011102Z 03007KT 03/M10 A3018 RMK A01 T00311095  RH  039%=      5-min Rain = 0
KKE1 011103Z 03008KT 03/M10 A3018 RMK A01 T00311095  RH  039%=      5-min Rain = 0
KKE1 011104Z 04009KT 03/M09 A3018 RMK A01 T00321094  RH  039%=      5-min Rain = 0
KKE1 011105Z 04009KT 03/M09 A3018 RMK A01 T00321094  RH  039%=      5-min Rain = 0
KKE1 011106Z 04008KT 03/M10 A3019 RMK A01 T00331095  RH  039%=      5-min Rain = 0
KKE1 011107Z 03008KT 03/M10 A3019 RMK A01 T00331095  RH  039%=      5-min Rain = 0
KKE1 011108Z 03008KT 03/M10 A3019 RMK A01 T00341095  RH  038%=      5-min Rain = 0
KKE1 011109Z 03009KT 03/M10 A3019 RMK A01 T00341095  RH  038%=      5-min Rain = 0
KKE1 011110Z 03008KT 03/M09 A3018 RMK A01 T00341094  RH  039%=      5-min Rain = 0
KKE1 011111Z 03008KT 03/M10 A3018 RMK A01 T00331095  RH  039%=      5-min Rain = 0
KKE1 011112Z 03007KT 03/M09 A3019 RMK A01 T00331094  RH  039%=      5-min Rain = 0
KKE1 011113Z 04008KT 03/M09 A3019 RMK A01 T00321094  RH  039%=      5-min Rain = 0
KKE1 011114Z 03009KT 03/M09 A3019 RMK A01 T00321094  RH  039%=      5-min Rain = 0
KKE1 011115Z 04010KT 03/M09 A3019 RMK A01 T00321094  RH  039%=      5-min Rain = 0
KKE1 011116Z 03009KT 03/M09 A3019 RMK A01 T00331094  RH  039%=      5-min Rain = 0
KKE1 011117Z 03007KT 03/M09 A3019 RMK A01 T00331094  RH  039%=      5-min Rain = 0
KKE1 011118Z 03007KT 03/M09 A3019 RMK A01 T00321094  RH  039%=      5-min Rain = 0
KKE1 011119Z 03007KT 03/M09 A3019 RMK A01 T00311094  RH  039%=      5-min Rain = 0
KKE1 011120Z 03007KT 03/M09 A3019 RMK A01 T00311094  RH  039%=      5-min Rain = 0
KKE1 011121Z 03006KT 03/M09 A3019 RMK A01 T00301094  RH  040%=      5-min Rain = 0
KKE1 011122Z 03006KT 03/M09 A302 RMK A01 T00301093  RH  040%=      5-min Rain = 0
KKE1 011123Z 03006KT 03/M09 A302 RMK A01 T00291093  RH  040%=      5-min Rain = 0
KKE1 011124Z 04007KT 03/M09 A302 RMK A01 T00291093  RH  040%=      5-min Rain = 0
KKE1 011125Z 04007KT 03/M09 A302 RMK A01 T00291093  RH  040%=      5-min Rain = 0
KKE1 011126Z 04007KT 03/M09 A3019 RMK A01 T00291093  RH  040%=      5-min Rain = 0
KKE1 011127Z 03007KT 03/M09 A3019 RMK A01 T00291093  RH  040%=      5-min Rain = 0
KKE1 011128Z 03007KT 03/M09 A3019 RMK A01 T00291092  RH  040%=      5-min Rain = 0
KKE1 011129Z 02006KT 03/M09 A302 RMK A01 T00291092  RH  040%=      5-min Rain = 0
KKE1 011130Z 03006KT 03/M09 A302 RMK A01 T00291092  RH  040%=      5-min Rain = 0
KKE1 011131Z 03006KT 03/M09 A302 RMK A01 T00291092  RH  041%=      5-min Rain = 0
KKE1 011132Z 03006KT 03/M09 A302 RMK A01 T00291092  RH  041%=      5-min Rain = 0
KKE1 011133Z 04007KT 03/M09 A302 RMK A01 T00291091  RH  041%=      5-min Rain = 0
KKE1 011134Z 04006KT 03/M09 A302 RMK A01 T00291091  RH  041%=      5-min Rain = 0
KKE1 011135Z 03007KT 03/M09 A302 RMK A01 T00291091  RH  041%=      5-min Rain = 0
KKE1 011136Z 04008KT 03/M09 A302 RMK A01 T00301090  RH  041%=      5-min Rain = 0
KKE1 011137Z 04008KT 03/M09 A302 RMK A01 T00301090  RH  041%=      5-min Rain = 0
KKE1 011138Z 03008KT 03/M09 A302 RMK A01 T00311089  RH  041%=      5-min Rain = 0
KKE1 011139Z 04008KT 03/M09 A302 RMK A01 T00321089  RH  041%=      5-min Rain = 0
KKE1 011140Z 03008KT 03/M09 A302 RMK A01 T00331089  RH  041%=      5-min Rain = 0
KKE1 011141Z 04009KT 03/M09 A302 RMK A01 T00341089  RH  040%=      5-min Rain = 0
KKE1 011142Z 04008KT 04/M09 A3021 RMK A01 T00351088  RH  040%=      5-min Rain = 0
KKE1 011143Z 04007KT 04/M09 A3021 RMK A01 T00351088  RH  040%=      5-min Rain = 0
KKE1 011144Z 04009KT 04/M09 A3021 RMK A01 T00351089  RH  040%=      5-min Rain = 0
KKE1 011145Z 04008KT 04/M09 A3021 RMK A01 T00361088  RH  040%=      5-min Rain = 0
KKE1 011146Z 04009KT 04/M09 A3021 RMK A01 T00371088  RH  040%=      5-min Rain = 0
KKE1 011147Z 04008KT 04/M09 A3021 RMK A01 T00371088  RH  040%=      5-min Rain = 0
KKE1 011148Z 04008KT 04/M09 A3021 RMK A01 T00371088  RH  040%=      5-min Rain = 0
KKE1 011149Z 04009KT 04/M09 A3021 RMK A01 T00371088  RH  040%=      5-min Rain = 0
KKE1 011150Z 04006KT 04/M09 A3021 RMK A01 T00371088  RH  040%=      5-min Rain = 0
KKE1 011151Z 04006KT 04/M09 A3021 RMK A01 T00371087  RH  040%=      5-min Rain = 0
KKE1 011152Z 05009KT 04/M09 A3021 RMK A01 T00371088  RH  040%=      5-min Rain = 0
KKE1 011153Z 04008KT 04/M09 A3021 RMK A01 T00371088  RH  040%=      5-min Rain = 0
KKE1 011154Z 05011KT 04/M09 A3021 RMK A01 T00371087  RH  040%=      5-min Rain = 0
KKE1 011155Z 04009KT 04/M09 A3021 RMK A01 T00371087  RH  040%=      5-min Rain = 0
KKE1 011156Z 05008KT 04/M09 A3021 RMK A01 T00371087  RH  040%=      5-min Rain = 0
KKE1 011157Z 04006KT 04/M09 A3022 RMK A01 T00381087  RH  040%=      5-min Rain = 0
KKE1 011158Z 05006KT 04/M09 A3022 RMK A01 T00371086  RH  040%=      5-min Rain = 0
KKE1 011159Z 04006KT 04/M09 A3022 RMK A01 T00371086  RH  040%=      5-min Rain = 0
KKE1 011200Z 04007KT 04/M09 A3022 RMK A01 T00371086  RH  040%=      5-min Rain = 0
KKE1 011201Z 05007KT 04/M09 A3022 RMK A01 T00371086  RH  040%=      5-min Rain = 0
KKE1 011202Z 06008KT 04/M09 A3022 RMK A01 T00371085  RH  040%=      5-min Rain = 0
KKE1 011203Z 05007KT 04/M09 A3022 RMK A01 T00371085  RH  040%=      5-min Rain = 0
KKE1 011204Z 05006KT 04/M09 A3022 RMK A01 T00381085  RH  040%=      5-min Rain = 0
KKE1 011205Z 06007KT 04/M09 A3022 RMK A01 T00371085  RH  040%=      5-min Rain = 0
KKE1 011206Z 05008KT 04/M09 A3022 RMK A01 T00381085  RH  040%=      5-min Rain = 0
KKE1 011207Z 05009KT 04/M09 A3022 RMK A01 T00381085  RH  040%=      5-min Rain = 0
KKE1 011208Z 05008KT 04/M09 A3022 RMK A01 T00381085  RH  040%=      5-min Rain = 0
KKE1 011209Z 05009KT 04/M08 A3022 RMK A01 T00381084  RH  040%=      5-min Rain = 0
KKE1 011210Z 05008KT 04/M08 A3022 RMK A01 T00381084  RH  040%=      5-min Rain = 0
KKE1 011211Z 05009KT 04/M08 A3022 RMK A01 T00381084  RH  040%=      5-min Rain = 0
KKE1 011212Z 06009KT 04/M08 A3022 RMK A01 T00381084  RH  040%=      5-min Rain = 0
KKE1 011213Z 05010KT 04/M08 A3022 RMK A01 T00391083  RH  040%=      5-min Rain = 0
KKE1 011214Z 06011KT 04/M08 A3022 RMK A01 T00401083  RH  040%=      5-min Rain = 0
KKE1 011215Z 06009KT 04/M08 A3022 RMK A01 T00401083  RH  040%=      5-min Rain = 0
KKE1 011216Z 05009KT 04/M08 A3023 RMK A01 T00401083  RH  040%=      5-min Rain = 0
KKE1 011217Z 05009KT 04/M08 A3023 RMK A01 T00411083  RH  040%=      5-min Rain = 0
KKE1 011218Z 05008KT 04/M08 A3023 RMK A01 T00411083  RH  040%=      5-min Rain = 0
KKE1 011219Z 05009KT 04/M08 A3023 RMK A01 T00411082  RH  040%=      5-min Rain = 0
KKE1 011220Z 06009KT 04/M08 A3023 RMK A01 T00411083  RH  040%=      5-min Rain = 0
KKE1 011221Z 05010KT 04/M08 A3023 RMK A01 T00411082  RH  040%=      5-min Rain = 0
KKE1 011222Z 05009KT 04/M08 A3023 RMK A01 T00411082  RH  040%=      5-min Rain = 0
KKE1 011223Z 06009KT 04/M08 A3023 RMK A01 T00411082  RH  040%=      5-min Rain = 0
KKE1 011224Z 05009KT 04/M08 A3023 RMK A01 T00411082  RH  040%=      5-min Rain = 0
KKE1 011225Z 06008KT 04/M08 A3023 RMK A01 T00411082  RH  040%=      5-min Rain = 0
KKE1 011226Z 06009KT 04/M08 A3023 RMK A01 T00411082  RH  040%=      5-min Rain = 0
KKE1 011227Z 06009KT 04/M08 A3023 RMK A01 T00401082  RH  041%=      5-min Rain = 0
KKE1 011228Z 06008KT 04/M08 A3023 RMK A01 T00401082  RH  041%=      5-min Rain = 0
KKE1 011229Z 06008KT 04/M08 A3023 RMK A01 T00391082  RH  041%=      5-min Rain = 0
KKE1 011230Z 07008KT 04/M08 A3023 RMK A01 T00381082  RH  041%=      5-min Rain = 0
KKE1 011231Z 07009KT 04/M08 A3023 RMK A01 T00381082  RH  041%=      5-min Rain = 0
KKE1 011232Z 07009KT 04/M08 A3023 RMK A01 T00381081  RH  041%=      5-min Rain = 0
KKE1 011233Z 06007KT 04/M08 A3023 RMK A01 T00381081  RH  042%=      5-min Rain = 0
KKE1 011234Z 07008KT 04/M08 A3023 RMK A01 T00371082  RH  042%=      5-min Rain = 0
KKE1 011235Z 07008KT 04/M08 A3023 RMK A01 T00361081  RH  042%=      5-min Rain = 0
KKE1 011236Z 06006KT 04/M08 A3023 RMK A01 T00351081  RH  042%=      5-min Rain = 0
KKE1 011237Z 07006KT 03/M08 A3023 RMK A01 T00341081  RH  043%=      5-min Rain = 0
KKE1 011238Z 06006KT 03/M08 A3024 RMK A01 T00341081  RH  043%=      5-min Rain = 0
KKE1 011239Z 07005KT 03/M08 A3024 RMK A01 T00331081  RH  043%=      5-min Rain = 0
KKE1 011240Z 07007KT 03/M08 A3024 RMK A01 T00321081  RH  043%=      5-min Rain = 0
KKE1 011241Z 06008KT 03/M08 A3024 RMK A01 T00321081  RH  043%=      5-min Rain = 0
KKE1 011242Z 06007KT 03/M08 A3024 RMK A01 T00331081  RH  043%=      5-min Rain = 0
KKE1 011243Z 06007KT 03/M08 A3024 RMK A01 T00331080  RH  043%=      5-min Rain = 0
KKE1 011244Z 06007KT 03/M08 A3024 RMK A01 T00331080  RH  043%=      5-min Rain = 0
KKE1 011245Z 06007KT 03/M08 A3024 RMK A01 T00331081  RH  043%=      5-min Rain = 0
KKE1 011246Z 06007KT 03/M08 A3024 RMK A01 T00321081  RH  043%=      5-min Rain = 0
KKE1 011247Z 05006KT 03/M08 A3024 RMK A01 T00321081  RH  044%=      5-min Rain = 0
KKE1 011248Z 06006KT 03/M08 A3024 RMK A01 T00311080  RH  044%=      5-min Rain = 0
KKE1 011249Z 07006KT 03/M08 A3024 RMK A01 T00311080  RH  044%=      5-min Rain = 0
KKE1 011250Z 06006KT 03/M08 A3024 RMK A01 T00311080  RH  044%=      5-min Rain = 0
KKE1 011251Z 06006KT 03/M08 A3024 RMK A01 T00311080  RH  044%=      5-min Rain = 0
KKE1 011252Z 06006KT 03/M08 A3024 RMK A01 T00311080  RH  044%=      5-min Rain = 0
KKE1 011253Z 06008KT 03/M08 A3024 RMK A01 T00311080  RH  044%=      5-min Rain = 0
KKE1 011254Z 06007KT 03/M08 A3024 RMK A01 T00321080  RH  044%=      5-min Rain = 0
KKE1 011255Z 06006KT 03/M08 A3025 RMK A01 T00321080  RH  043%=      5-min Rain = 0
KKE1 011256Z 06007KT 03/M08 A3025 RMK A01 T00331080  RH  043%=      5-min Rain = 0
KKE1 011257Z 07006KT 03/M08 A3024 RMK A01 T00321080  RH  043%=      5-min Rain = 0
KKE1 011258Z 06006KT 03/M08 A3024 RMK A01 T00321081  RH  044%=      5-min Rain = 0
KKE1 011259Z 06006KT 03/M08 A3024 RMK A01 T00311080  RH  044%=      5-min Rain = 0
KKE1 011300Z 06007KT 03/M08 A3024 RMK A01 T00301080  RH  044%=      5-min Rain = 0
KKE1 011301Z 07006KT 03/M08 A3024 RMK A01 T00301080  RH  044%=      5-min Rain = 0
KKE1 011302Z 07006KT 03/M08 A3025 RMK A01 T00301080  RH  044%=      5-min Rain = 0
KKE1 011303Z 06007KT 03/M08 A3025 RMK A01 T00301080  RH  044%=      5-min Rain = 0
KKE1 011304Z 06006KT 03/M08 A3025 RMK A01 T00311080  RH  044%=      5-min Rain = 0
KKE1 011305Z 06006KT 03/M08 A3025 RMK A01 T00311080  RH  044%=      5-min Rain = 0
KKE1 011306Z 06006KT 03/M08 A3025 RMK A01 T00311080  RH  044%=      5-min Rain = 0
KKE1 011307Z 07007KT 03/M08 A3025 RMK A01 T00311080  RH  044%=      5-min Rain = 0
KKE1 011308Z 07006KT 03/M08 A3025 RMK A01 T00311079  RH  044%=      5-min Rain = 0
KKE1 011309Z 07006KT 03/M08 A3025 RMK A01 T00311079  RH  044%=      5-min Rain = 0
KKE1 011310Z 07006KT 03/M08 A3025 RMK A01 T00311079  RH  044%=      5-min Rain = 0
KKE1 011311Z 07006KT 03/M08 A3025 RMK A01 T00311079  RH  044%=      5-min Rain = 0
KKE1 011312Z 07005KT 03/M08 A3025 RMK A01 T00311079  RH  044%=      5-min Rain = 0
KKE1 011313Z 07006KT 03/M08 A3025 RMK A01 T00311079  RH  044%=      5-min Rain = 0
KKE1 011314Z 07006KT 03/M08 A3025 RMK A01 T00311079  RH  044%=      5-min Rain = 0
KKE1 011315Z 07006KT 03/M08 A3025 RMK A01 T00311079  RH  044%=      5-min Rain = 0
KKE1 011316Z 08005KT 03/M08 A3025 RMK A01 T00311079  RH  044%=      5-min Rain = 0
KKE1 011317Z 08005KT 03/M08 A3025 RMK A01 T00301079  RH  045%=      5-min Rain = 0
KKE1 011318Z 08005KT 03/M08 A3025 RMK A01 T00291079  RH  045%=      5-min Rain = 0
KKE1 011319Z 08006KT 03/M08 A3025 RMK A01 T00281079  RH  045%=      5-min Rain = 0
KKE1 011320Z 08005KT 03/M08 A3025 RMK A01 T00281079  RH  045%=      5-min Rain = 0
KKE1 011321Z 08005KT 03/M08 A3025 RMK A01 T00281078  RH  045%=      5-min Rain = 0
KKE1 011322Z 08005KT 03/M08 A3026 RMK A01 T00281078  RH  046%=      5-min Rain = 0
KKE1 011323Z 08006KT 03/M08 A3026 RMK A01 T00281078  RH  046%=      5-min Rain = 0
KKE1 011324Z 08005KT 03/M08 A3026 RMK A01 T00281078  RH  046%=      5-min Rain = 0
KKE1 011325Z 09005KT 03/M08 A3026 RMK A01 T00281078  RH  046%=      5-min Rain = 0
KKE1 011326Z 08005KT 03/M08 A3026 RMK A01 T00281078  RH  046%=      5-min Rain = 0
KKE1 011327Z 09005KT 03/M08 A3026 RMK A01 T00281078  RH  046%=      5-min Rain = 0
KKE1 011328Z 09005KT 03/M08 A3026 RMK A01 T00271078  RH  046%=      5-min Rain = 0
KKE1 011329Z 09005KT 03/M08 A3026 RMK A01 T00271078  RH  046%=      5-min Rain = 0
KKE1 011330Z 10005KT 03/M08 A3026 RMK A01 T00261078  RH  046%=      5-min Rain = 0
KKE1 011331Z 10005KT 03/M08 A3026 RMK A01 T00261078  RH  046%=      5-min Rain = 0
KKE1 011332Z 10005KT 03/M08 A3026 RMK A01 T00261078  RH  046%=      5-min Rain = 0
KKE1 011333Z 10005KT 03/M08 A3026 RMK A01 T00261078  RH  046%=      5-min Rain = 0
KKE1 011334Z 10006KT 03/M08 A3026 RMK A01 T00261078  RH  046%=      5-min Rain = 0
KKE1 011335Z 11004KT 03/M08 A3026 RMK A01 T00261078  RH  046%=      5-min Rain = 0
KKE1 011336Z 11005KT 03/M08 A3026 RMK A01 T00261078  RH  046%=      5-min Rain = 0
KKE1 011337Z 11005KT 02/M08 A3027 RMK A01 T00241078  RH  047%=      5-min Rain = 0
KKE1 011338Z 11005KT 02/M08 A3026 RMK A01 T00231078  RH  047%=      5-min Rain = 0
KKE1 011339Z 10005KT 02/M08 A3026 RMK A01 T00221079  RH  047%=      5-min Rain = 0
KKE1 011340Z 10005KT 02/M08 A3027 RMK A01 T00221078  RH  048%=      5-min Rain = 0
KKE1 011341Z 10005KT 02/M08 A3027 RMK A01 T00211078  RH  048%=      5-min Rain = 0
KKE1 011342Z 11005KT 02/M08 A3027 RMK A01 T00211078  RH  048%=      5-min Rain = 0
KKE1 011343Z 09004KT 02/M08 A3027 RMK A01 T00211078  RH  048%=      5-min Rain = 0
KKE1 011344Z 10004KT 02/M08 A3027 RMK A01 T00211078  RH  048%=      5-min Rain = 0
KKE1 011345Z 08004KT 02/M08 A3027 RMK A01 T00211077  RH  048%=      5-min Rain = 0
KKE1 011346Z 08005KT 02/M08 A3027 RMK A01 T00211077  RH  048%=      5-min Rain = 0
KKE1 011347Z 08004KT 02/M08 A3027 RMK A01 T00211077  RH  048%=      5-min Rain = 0
KKE1 011348Z 08004KT 02/M08 A3027 RMK A01 T00221077  RH  048%=      5-min Rain = 0
KKE1 011349Z 08004KT 02/M08 A3028 RMK A01 T00221078  RH  048%=      5-min Rain = 0
KKE1 011350Z 08004KT 02/M08 A3028 RMK A01 T00221078  RH  048%=      5-min Rain = 0
KKE1 011351Z 08004KT 02/M08 A3028 RMK A01 T00221077  RH  048%=      5-min Rain = 0
KKE1 011352Z 07004KT 02/M08 A3028 RMK A01 T00221077  RH  048%=      5-min Rain = 0
KKE1 011353Z 08004KT 02/M08 A3028 RMK A01 T00221078  RH  048%=      5-min Rain = 0
KKE1 011354Z 07004KT 02/M08 A3028 RMK A01 T00231077  RH  048%=      5-min Rain = 0
KKE1 011355Z 07004KT 02/M08 A3028 RMK A01 T00231077  RH  048%=      5-min Rain = 0
KKE1 011356Z 07004KT 02/M08 A3028 RMK A01 T00241077  RH  047%=      5-min Rain = 0
KKE1 011357Z 07004KT 02/M08 A3028 RMK A01 T00241077  RH  047%=      5-min Rain = 0
KKE1 011358Z 07004KT 03/M08 A3028 RMK A01 T00251077  RH  047%=      5-min Rain = 0
KKE1 011359Z 07004KT 03/M08 A3028 RMK A01 T00251077  RH  047%=      5-min Rain = 0
KKE1 011400Z 07004KT 03/M08 A3029 RMK A01 T00251077  RH  047%=      5-min Rain = 0
KKE1 011401Z 08003KT 03/M08 A3029 RMK A01 T00251077  RH  047%=      5-min Rain = 0
KKE1 011402Z 07003KT 03/M08 A3029 RMK A01 T00261077  RH  047%=      5-min Rain = 0
KKE1 011403Z 06003KT 03/M08 A3029 RMK A01 T00271076  RH  047%=      5-min Rain = 0
KKE1 011404Z 06004KT 03/M08 A3029 RMK A01 T00271076  RH  046%=      5-min Rain = 0
KKE1 011405Z 06004KT 03/M08 A3029 RMK A01 T00281077  RH  046%=      5-min Rain = 0
KKE1 011406Z 06003KT 03/M08 A3029 RMK A01 T00281077  RH  046%=      5-min Rain = 0
KKE1 011407Z 05003KT 03/M08 A3029 RMK A01 T00281077  RH  046%=      5-min Rain = 0
KKE1 011408Z 03002KT 03/M08 A303 RMK A01 T00281077  RH  046%=      5-min Rain = 0
KKE1 011409Z 01001KT 03/M08 A303 RMK A01 T00281076  RH  046%=      5-min Rain = 0
KKE1 011410Z 36001KT 03/M08 A303 RMK A01 T00281076  RH  046%=      5-min Rain = 0
KKE1 011411Z 01002KT 03/M08 A303 RMK A01 T00281076  RH  046%=      5-min Rain = 0
KKE1 011412Z 01002KT 03/M08 A303 RMK A01 T00281076  RH  046%=      5-min Rain = 0
KKE1 011413Z 02003KT 03/M08 A303 RMK A01 T00281076  RH  046%=      5-min Rain = 0
KKE1 011414Z 02003KT 03/M08 A303 RMK A01 T00291075  RH  046%=      5-min Rain = 0
KKE1 011415Z 03003KT 03/M08 A303 RMK A01 T00291076  RH  046%=      5-min Rain = 0
KKE1 011416Z 03003KT 03/M08 A303 RMK A01 T00291076  RH  046%=      5-min Rain = 0
KKE1 011417Z 03003KT 03/M08 A303 RMK A01 T00291075  RH  046%=      5-min Rain = 0
KKE1 011418Z 03003KT 03/M08 A303 RMK A01 T00291076  RH  046%=      5-min Rain = 0
KKE1 011419Z 03003KT 03/M08 A303 RMK A01 T00301075  RH  046%=      5-min Rain = 0
KKE1 011420Z 04003KT 03/M08 A303 RMK A01 T00301076  RH  046%=      5-min Rain = 0
KKE1 011421Z 04003KT 03/M08 A303 RMK A01 T00301076  RH  046%=      5-min Rain = 0
KKE1 011422Z 02003KT 03/M08 A303 RMK A01 T00301077  RH  045%=      5-min Rain = 0
KKE1 011423Z 01003KT 03/M08 A3031 RMK A01 T00301076  RH  046%=      5-min Rain = 0
KKE1 011424Z 03003KT 03/M08 A3031 RMK A01 T00301076  RH  046%=      5-min Rain = 0
KKE1 011425Z 01003KT 03/M08 A3031 RMK A01 T00311076  RH  045%=      5-min Rain = 0
KKE1 011426Z 03004KT 03/M08 A3031 RMK A01 T00311076  RH  045%=      5-min Rain = 0
KKE1 011427Z 04003KT 03/M08 A3031 RMK A01 T00321075  RH  045%=      5-min Rain = 0
KKE1 011428Z 03004KT 03/M08 A3031 RMK A01 T00321075  RH  045%=      5-min Rain = 0
KKE1 011429Z 03005KT 03/M08 A3031 RMK A01 T00331076  RH  045%=      5-min Rain = 0
KKE1 011430Z 04005KT 03/M08 A3031 RMK A01 T00331077  RH  044%=      5-min Rain = 0
KKE1 011431Z 03005KT 03/M08 A3031 RMK A01 T00331078  RH  044%=      5-min Rain = 0
KKE1 011432Z 03006KT 03/M08 A3031 RMK A01 T00331079  RH  044%=      5-min Rain = 0
KKE1 011433Z 03007KT 03/M08 A3031 RMK A01 T00331080  RH  043%=      5-min Rain = 0
KKE1 011434Z 03007KT 03/M08 A3031 RMK A01 T00331082  RH  043%=      5-min Rain = 0
KKE1 011435Z 04006KT 03/M08 A3031 RMK A01 T00341082  RH  042%=      5-min Rain = 0
KKE1 011436Z 04006KT 03/M08 A3031 RMK A01 T00341081  RH  042%=      5-min Rain = 0
KKE1 011437Z 04008KT 04/M08 A3032 RMK A01 T00351081  RH  042%=      5-min Rain = 0
KKE1 011438Z 03007KT 04/M08 A3032 RMK A01 T00351084  RH  041%=      5-min Rain = 0
KKE1 011439Z 03009KT 04/M08 A3032 RMK A01 T00361084  RH  041%=      5-min Rain = 0
KKE1 011440Z 04010KT 04/M08 A3032 RMK A01 T00371084  RH  041%=      5-min Rain = 0
KKE1 011441Z 03009KT 04/M09 A3032 RMK A01 T00371085  RH  041%=      5-min Rain = 0
KKE1 011442Z 03008KT 04/M09 A3032 RMK A01 T00371085  RH  041%=      5-min Rain = 0
KKE1 011443Z 04008KT 04/M08 A3032 RMK A01 T00381084  RH  041%=      5-min Rain = 0
KKE1 011444Z 04008KT 04/M09 A3032 RMK A01 T00391085  RH  040%=      5-min Rain = 0
KKE1 011445Z 03008KT 04/M09 A3032 RMK A01 T00391085  RH  040%=      5-min Rain = 0
KKE1 011446Z 03010KT 04/M08 A3032 RMK A01 T00391084  RH  040%=      5-min Rain = 0
KKE1 011447Z 03008KT 04/M09 A3031 RMK A01 T00401085  RH  040%=      5-min Rain = 0
KKE1 011448Z 04008KT 04/M09 A3031 RMK A01 T00401085  RH  040%=      5-min Rain = 0
KKE1 011449Z 04008KT 04/M09 A3032 RMK A01 T00401086  RH  039%=      5-min Rain = 0
KKE1 011450Z 04009KT 04/M09 A3032 RMK A01 T00401086  RH  039%=      5-min Rain = 0
KKE1 011451Z 04009KT 04/M09 A3032 RMK A01 T00411086  RH  039%=      5-min Rain = 0
KKE1 011452Z 03010KT 04/M09 A3032 RMK A01 T00411086  RH  039%=      5-min Rain = 0
KKE1 011453Z 04008KT 04/M09 A3032 RMK A01 T00421086  RH  039%=      5-min Rain = 0
KKE1 011454Z 04011KT 04/M09 A3032 RMK A01 T00431086  RH  039%=      5-min Rain = 0
KKE1 011455Z 03009KT 04/M09 A3032 RMK A01 T00431087  RH  038%=      5-min Rain = 0
KKE1 011456Z 04010KT 04/M09 A3032 RMK A01 T00421087  RH  038%=      5-min Rain = 0
KKE1 011457Z 04010KT 04/M09 A3032 RMK A01 T00421087  RH  039%=      5-min Rain = 0
KKE1 011458Z 04008KT 04/M09 A3032 RMK A01 T00421086  RH  039%=      5-min Rain = 0
KKE1 011459Z 04009KT 04/M09 A3032 RMK A01 T00421085  RH  039%=      5-min Rain = 0
KKE1 011500Z 03010KT 04/M09 A3033 RMK A01 T00431085  RH  039%=      5-min Rain = 0
KKE1 011501Z 04011KT 04/M09 A3032 RMK A01 T00431086  RH  039%=      5-min Rain = 0
KKE1 011502Z 04010KT 04/M09 A3032 RMK A01 T00421086  RH  039%=      5-min Rain = 0
KKE1 011503Z 03010KT 04/M09 A3032 RMK A01 T00431086  RH  039%=      5-min Rain = 0
KKE1 011504Z 04011KT 04/M09 A3032 RMK A01 T00431086  RH  039%=      5-min Rain = 0
KKE1 011505Z 04011KT 04/M09 A3032 RMK A01 T00421086  RH  039%=      5-min Rain = 0
KKE1 011506Z 04010KT 04/M09 A3033 RMK A01 T00421086  RH  039%=      5-min Rain = 0
KKE1 011507Z 05008KT 04/M09 A3033 RMK A01 T00431085  RH  039%=      5-min Rain = 0
KKE1 011508Z 05009KT 05/M08 A3033 RMK A01 T00451084  RH  039%=      5-min Rain = 0
KKE1 011509Z 04011KT 05/M08 A3033 RMK A01 T00461084  RH  038%=      5-min Rain = 0
KKE1 011510Z 05010KT 05/M08 A3033 RMK A01 T00471083  RH  038%=      5-min Rain = 0
KKE1 011511Z 04012KT 05/M08 A3033 RMK A01 T00491083  RH  038%=      5-min Rain = 0
KKE1 011512Z 03011KT 05/M08 A3033 RMK A01 T00501083  RH  038%=      5-min Rain = 0
KKE1 011513Z 04012KT 05/M08 A3034 RMK A01 T00511082  RH  037%=      5-min Rain = 0
KKE1 011514Z 04012KT 05/M08 A3034 RMK A01 T00511083  RH  037%=      5-min Rain = 0
KKE1 011515Z 05011KT 05/M08 A3034 RMK A01 T00511083  RH  037%=      5-min Rain = 0
KKE1 011516Z 04009KT 05/M08 A3034 RMK A01 T00521081  RH  037%=      5-min Rain = 0
KKE1 011517Z 03010KT 05/M08 A3034 RMK A01 T00541081  RH  037%=      5-min Rain = 0
KKE1 011518Z 04011KT 05/M08 A3034 RMK A01 T00531082  RH  037%=      5-min Rain = 0
KKE1 011519Z 05013KT 05/M08 A3034 RMK A01 T00521083  RH  037%=      5-min Rain = 0
KKE1 011520Z 05013KT 05/M08 A3034 RMK A01 T00491084  RH  038%=      5-min Rain = 0
KKE1 011521Z 05011KT 05/M08 A3034 RMK A01 T00471084  RH  038%=      5-min Rain = 0
KKE1 011522Z 05012KT 05/M08 A3034 RMK A01 T00471083  RH  038%=      5-min Rain = 0
KKE1 011523Z 04013KT 05/M08 A3034 RMK A01 T00471083  RH  039%=      5-min Rain = 0
KKE1 011524Z 04010KT 05/M08 A3034 RMK A01 T00471083  RH  039%=      5-min Rain = 0
KKE1 011525Z 04012KT 05/M08 A3034 RMK A01 T00461082  RH  039%=      5-min Rain = 0
KKE1 011526Z 04013KT 05/M08 A3034 RMK A01 T00491080  RH  039%=      5-min Rain = 0
KKE1 011527Z 04014KT 05/M08 A3034 RMK A01 T00511080  RH  038%=      5-min Rain = 0
KKE1 011528Z 04012KT 05/M08 A3034 RMK A01 T00511081  RH  038%=      5-min Rain = 0
KKE1 011529Z 04009KT 05/M08 A3034 RMK A01 T00501081  RH  038%=      5-min Rain = 0
KKE1 011530Z 04011KT 05/M08 A3034 RMK A01 T00501080  RH  038%=      5-min Rain = 0
KKE1 011531Z 05012KT 05/M08 A3034 RMK A01 T00501081  RH  038%=      5-min Rain = 0
KKE1 011532Z 04012KT 05/M08 A3034 RMK A01 T00491082  RH  038%=      5-min Rain = 0
KKE1 011533Z 05011KT 05/M08 A3034 RMK A01 T00481081  RH  039%=      5-min Rain = 0
KKE1 011534Z 05010KT 05/M08 A3034 RMK A01 T00471080  RH  039%=      5-min Rain = 0
KKE1 011535Z 04011KT 05/M08 A3034 RMK A01 T00481080  RH  039%=      5-min Rain = 0
KKE1 011536Z 04013KT 05/M08 A3034 RMK A01 T00481081  RH  039%=      5-min Rain = 0
KKE1 011537Z 04012KT 05/M08 A3034 RMK A01 T00471081  RH  039%=      5-min Rain = 0
KKE1 011538Z 04011KT 05/M08 A3034 RMK A01 T00471081  RH  039%=      5-min Rain = 0
KKE1 011539Z 03012KT 05/M08 A3035 RMK A01 T00471081  RH  039%=      5-min Rain = 0
KKE1 011540Z 03010KT 05/M08 A3035 RMK A01 T00471080  RH  039%=      5-min Rain = 0
KKE1 011541Z 04011KT 05/M08 A3035 RMK A01 T00481080  RH  039%=      5-min Rain = 0
KKE1 011542Z 04010KT 05/M08 A3034 RMK A01 T00491080  RH  039%=      5-min Rain = 0
KKE1 011543Z 04010KT 05/M08 A3034 RMK A01 T00501079  RH  039%=      5-min Rain = 0
KKE1 011544Z 04010KT 05/M08 A3035 RMK A01 T00511079  RH  038%=      5-min Rain = 0
KKE1 011545Z 04008KT 05/M08 A3035 RMK A01 T00501080  RH  038%=      5-min Rain = 0
KKE1 011546Z 04010KT 05/M08 A3035 RMK A01 T00511079  RH  039%=      5-min Rain = 0
KKE1 011547Z 05010KT 05/M08 A3035 RMK A01 T00511079  RH  038%=      5-min Rain = 0
KKE1 011548Z 05009KT 05/M08 A3035 RMK A01 T00521079  RH  038%=      5-min Rain = 0
KKE1 011549Z 04009KT 05/M08 A3035 RMK A01 T00541078  RH  038%=      5-min Rain = 0
KKE1 011550Z 04011KT 05/M08 A3035 RMK A01 T00541079  RH  038%=      5-min Rain = 0
KKE1 011551Z 03013KT 05/M08 A3035 RMK A01 T00531079  RH  038%=      5-min Rain = 0
KKE1 011552Z 04011KT 05/M08 A3035 RMK A01 T00521080  RH  038%=      5-min Rain = 0
KKE1 011553Z 04009KT 05/M08 A3035 RMK A01 T00521078  RH  038%=      5-min Rain = 0
KKE1 011554Z 04010KT 05/M08 A3035 RMK A01 T00531078  RH  038%=      5-min Rain = 0
KKE1 011555Z 03011KT 05/M08 A3035 RMK A01 T00541078  RH  038%=      5-min Rain = 0
KKE1 011556Z 04010KT 06/M08 A3035 RMK A01 T00551078  RH  038%=      5-min Rain = 0
KKE1 011557Z 05009KT 06/M08 A3035 RMK A01 T00561078  RH  038%=      5-min Rain = 0
KKE1 011558Z 06010KT 06/M08 A3035 RMK A01 T00561077  RH  038%=      5-min Rain = 0
KKE1 011559Z 06009KT 06/M08 A3035 RMK A01 T00551078  RH  038%=      5-min Rain = 0
KKE1 011600Z 06010KT 05/M08 A3035 RMK A01 T00541078  RH  038%=      5-min Rain = 0
KKE1 011601Z 05008KT 05/M08 A3036 RMK A01 T00541079  RH  038%=      5-min Rain = 0
KKE1 011602Z 03010KT 06/M08 A3036 RMK A01 T00551077  RH  038%=      5-min Rain = 0
KKE1 011603Z 04011KT 06/M08 A3036 RMK A01 T00571077  RH  037%=      5-min Rain = 0
KKE1 011604Z 03010KT 06/M08 A3036 RMK A01 T00561079  RH  037%=      5-min Rain = 0
KKE1 011605Z 04008KT 06/M08 A3036 RMK A01 T00551079  RH  037%=      5-min Rain = 0
KKE1 011606Z 03007KT 06/M08 A3036 RMK A01 T00561079  RH  037%=      5-min Rain = 0
KKE1 011607Z 03007KT 06/M08 A3036 RMK A01 T00561079  RH  037%=      5-min Rain = 0
KKE1 011608Z 03013KT 06/M08 A3036 RMK A01 T00571077  RH  037%=      5-min Rain = 0
KKE1 011609Z 04013KT 06/M08 A3036 RMK A01 T00581079  RH  036%=      5-min Rain = 0
KKE1 011610Z 04012KT 06/M08 A3036 RMK A01 T00571082  RH  036%=      5-min Rain = 0
KKE1 011611Z 05009KT 05/M08 A3036 RMK A01 T00541082  RH  037%=      5-min Rain = 0
KKE1 011612Z 05009KT 06/M08 A3036 RMK A01 T00551081  RH  037%=      5-min Rain = 0
KKE1 011613Z 05010KT 06/M08 A3036 RMK A01 T00561080  RH  037%=      5-min Rain = 0
KKE1 011614Z 04014KT 06/M08 A3036 RMK A01 T00571080  RH  037%=      5-min Rain = 0
KKE1 011615Z 04014KT 06/M08 A3036 RMK A01 T00561082  RH  036%=      5-min Rain = 0
KKE1 011616Z 03012KT 05/M08 A3036 RMK A01 T00541082  RH  037%=      5-min Rain = 0
KKE1 011617Z 04010KT 05/M08 A3036 RMK A01 T00531082  RH  037%=      5-min Rain = 0
KKE1 011618Z 04008KT 05/M08 A3036 RMK A01 T00531082  RH  037%=      5-min Rain = 0
KKE1 011619Z 04011KT 05/M08 A3036 RMK A01 T00531081  RH  037%=      5-min Rain = 0
KKE1 011620Z 05012KT 06/M08 A3036 RMK A01 T00561079  RH  037%=      5-min Rain = 0
KKE1 011621Z 05009KT 06/M08 A3036 RMK A01 T00571080  RH  037%=      5-min Rain = 0
KKE1 011622Z 03011KT 06/M08 A3036 RMK A01 T00581078  RH  037%=      5-min Rain = 0
KKE1 011623Z 04011KT 06/M08 A3036 RMK A01 T00581079  RH  037%=      5-min Rain = 0
KKE1 011624Z 04010KT 06/M08 A3036 RMK A01 T00571080  RH  037%=      5-min Rain = 0
KKE1 011625Z 03009KT 06/M08 A3036 RMK A01 T00561081  RH  037%=      5-min Rain = 0
KKE1 011626Z 03008KT 06/M08 A3036 RMK A01 T00551082  RH  037%=      5-min Rain = 0
KKE1 011627Z 03009KT 05/M08 A3036 RMK A01 T00541082  RH  037%=      5-min Rain = 0
KKE1 011628Z 02012KT 06/M08 A3036 RMK A01 T00561079  RH  037%=      5-min Rain = 0
KKE1 011629Z 02011KT 06/M08 A3036 RMK A01 T00581079  RH  037%=      5-min Rain = 0
KKE1 011630Z 03010KT 06/M08 A3036 RMK A01 T00601078  RH  036%=      5-min Rain = 0
KKE1 011631Z 03010KT 06/M08 A3036 RMK A01 T00611079  RH  036%=      5-min Rain = 0
KKE1 011632Z 02008KT 06/M08 A3036 RMK A01 T00601080  RH  036%=      5-min Rain = 0
KKE1 011633Z 03009KT 06/M08 A3036 RMK A01 T00601080  RH  036%=      5-min Rain = 0
KKE1 011634Z 03010KT 06/M08 A3036 RMK A01 T00591081  RH  036%=      5-min Rain = 0
KKE1 011635Z 01010KT 06/M08 A3037 RMK A01 T00581081  RH  036%=      5-min Rain = 0
KKE1 011636Z 01008KT 06/M08 A3037 RMK A01 T00581081  RH  036%=      5-min Rain = 0
KKE1 011637Z 01009KT 06/M08 A3037 RMK A01 T00571082  RH  036%=      5-min Rain = 0
KKE1 011638Z 03009KT 06/M08 A3037 RMK A01 T00571083  RH  036%=      5-min Rain = 0
KKE1 011639Z 04011KT 06/M08 A3037 RMK A01 T00571082  RH  036%=      5-min Rain = 0
KKE1 011640Z 04013KT 06/M08 A3037 RMK A01 T00591081  RH  036%=      5-min Rain = 0
KKE1 011641Z 04011KT 06/M08 A3037 RMK A01 T00581082  RH  036%=      5-min Rain = 0
KKE1 011642Z 04009KT 06/M08 A3037 RMK A01 T00581081  RH  036%=      5-min Rain = 0
KKE1 011643Z 06007KT 06/M08 A3037 RMK A01 T00581081  RH  036%=      5-min Rain = 0
KKE1 011644Z 06008KT 06/M08 A3037 RMK A01 T00601079  RH  036%=      5-min Rain = 0
KKE1 011645Z 06007KT 06/M08 A3037 RMK A01 T00611079  RH  036%=      5-min Rain = 0
KKE1 011646Z 05008KT 06/M08 A3037 RMK A01 T00621080  RH  035%=      5-min Rain = 0
KKE1 011647Z 03008KT 06/M08 A3037 RMK A01 T00621081  RH  035%=      5-min Rain = 0
KKE1 011648Z 03011KT 06/M08 A3037 RMK A01 T00631080  RH  035%=      5-min Rain = 0
KKE1 011649Z 04010KT 06/M08 A3037 RMK A01 T00621082  RH  035%=      5-min Rain = 0
KKE1 011650Z 05012KT 06/M08 A3037 RMK A01 T00601083  RH  035%=      5-min Rain = 0
KKE1 011651Z 05009KT 06/M08 A3037 RMK A01 T00581082  RH  036%=      5-min Rain = 0
KKE1 011652Z 04008KT 06/M08 A3037 RMK A01 T00591082  RH  036%=      5-min Rain = 0
KKE1 011653Z 03011KT 06/M08 A3037 RMK A01 T00591080  RH  036%=      5-min Rain = 0
KKE1 011654Z 02010KT 06/M08 A3037 RMK A01 T00591081  RH  036%=      5-min Rain = 0
KKE1 011655Z 02008KT 06/M08 A3037 RMK A01 T00581080  RH  036%=      5-min Rain = 0
KKE1 011656Z 02009KT 06/M08 A3037 RMK A01 T00601078  RH  036%=      5-min Rain = 0
KKE1 011657Z 03011KT 06/M08 A3037 RMK A01 T00621077  RH  036%=      5-min Rain = 0
KKE1 011658Z 03012KT 06/M08 A3038 RMK A01 T00631078  RH  036%=      5-min Rain = 0
KKE1 011659Z 03009KT 06/M08 A3038 RMK A01 T00631079  RH  036%=      5-min Rain = 0
KKE1 011700Z 04011KT 06/M08 A3038 RMK A01 T00621078  RH  036%=      5-min Rain = 0
KKE1 011701Z 04009KT 06/M08 A3038 RMK A01 T00621079  RH  036%=      5-min Rain = 0
KKE1 011702Z 04007KT 06/M08 A3038 RMK A01 T00601080  RH  036%=      5-min Rain = 0
KKE1 011703Z 03009KT 06/M08 A3038 RMK A01 T00611079  RH  036%=      5-min Rain = 0
KKE1 011704Z 03012KT 06/M08 A3038 RMK A01 T00621079  RH  036%=      5-min Rain = 0
KKE1 011705Z 03011KT 06/M08 A3038 RMK A01 T00611081  RH  035%=      5-min Rain = 0
KKE1 011706Z 04009KT 06/M08 A3038 RMK A01 T00601080  RH  036%=      5-min Rain = 0
KKE1 011707Z 03010KT 06/M08 A3038 RMK A01 T00621078  RH  036%=      5-min Rain = 0
KKE1 011708Z 03011KT 06/M08 A3038 RMK A01 T00621079  RH  036%=      5-min Rain = 0
KKE1 011709Z 03013KT 06/M08 A3038 RMK A01 T00621079  RH  036%=      5-min Rain = 0
KKE1 011710Z 03010KT 06/M08 A3038 RMK A01 T00621079  RH  036%=      5-min Rain = 0
KKE1 011711Z 02012KT 06/M08 A3038 RMK A01 T00621080  RH  035%=      5-min Rain = 0
KKE1 011712Z 02011KT 06/M08 A3038 RMK A01 T00611081  RH  035%=      5-min Rain = 0
KKE1 011713Z 02011KT 06/M08 A3038 RMK A01 T00611081  RH  035%=      5-min Rain = 0
KKE1 011714Z 02010G15KT 06/M08 A3038 RMK A01 T00611080  RH  036%=      5-min Rain = 0
KKE1 011715Z 36012KT 06/M08 A3038 RMK A01 T00641077  RH  036%=      5-min Rain = 0
KKE1 011716Z 36010KT 06/M08 A3038 RMK A01 T00621081  RH  035%=      5-min Rain = 0
KKE1 011717Z 00012KT 06/M08 A3038 RMK A01 T00611081  RH  035%=      5-min Rain = 0
KKE1 011718Z 00011KT 06/M08 A3038 RMK A01 T00601081  RH  036%=      5-min Rain = 0
KKE1 011719Z 01013G18KT 06/M08 A3038 RMK A01 T00591080  RH  036%=      5-min Rain = 0
KKE1 011720Z 03015KT 06/M08 A3039 RMK A01 T00581078  RH  037%=      5-min Rain = 0
KKE1 011721Z 03014KT 06/M08 A3039 RMK A01 T00581076  RH  037%=      5-min Rain = 0
KKE1 011722Z 03014KT 06/M08 A3039 RMK A01 T00581076  RH  038%=      5-min Rain = 0
KKE1 011723Z 04011KT 06/M08 A3039 RMK A01 T00581076  RH  038%=      5-min Rain = 0
KKE1 011724Z 03010KT 06/M07 A3039 RMK A01 T00581074  RH  038%=      5-min Rain = 0
KKE1 011725Z 02013KT 06/M07 A3039 RMK A01 T00611072  RH  038%=      5-min Rain = 0
KKE1 011726Z 03010KT 06/M08 A3039 RMK A01 T00581076  RH  037%=      5-min Rain = 0
KKE1 011727Z 03014KT 06/M08 A3039 RMK A01 T00561075  RH  038%=      5-min Rain = 0
KKE1 011728Z 03014KT 06/M07 A3039 RMK A01 T00571073  RH  039%=      5-min Rain = 0
KKE1 011729Z 03011KT 06/M07 A3039 RMK A01 T00581074  RH  038%=      5-min Rain = 0
KKE1 011730Z 03011KT 06/M07 A3039 RMK A01 T00571074  RH  038%=      5-min Rain = 0
KKE1 011731Z 04012KT 06/M07 A3039 RMK A01 T00561073  RH  039%=      5-min Rain = 0
KKE1 011732Z 03013KT 06/M07 A3039 RMK A01 T00571072  RH  039%=      5-min Rain = 0
KKE1 011733Z 00012KT 06/M07 A3039 RMK A01 T00571073  RH  039%=      5-min Rain = 0
KKE1 011734Z 02011KT 06/M07 A3039 RMK A01 T00571073  RH  039%=      5-min Rain = 0
KKE1 011735Z 02013KT 06/M07 A3039 RMK A01 T00571072  RH  039%=      5-min Rain = 0
KKE1 011736Z 04011KT 06/M07 A3039 RMK A01 T00571072  RH  039%=      5-min Rain = 0
KKE1 011737Z 05009KT 06/M07 A3039 RMK A01 T00591070  RH  039%=      5-min Rain = 0
KKE1 011738Z 03014KT 06/M07 A304 RMK A01 T00611070  RH  038%=      5-min Rain = 0
KKE1 011739Z 04015KT 06/M07 A304 RMK A01 T00581073  RH  038%=      5-min Rain = 0
KKE1 011740Z 02014KT 06/M07 A304 RMK A01 T00551073  RH  039%=      5-min Rain = 0
KKE1 011741Z 02011KT 06/M07 A304 RMK A01 T00551072  RH  039%=      5-min Rain = 0
KKE1 011742Z 02010G15KT 06/M07 A3039 RMK A01 T00581069  RH  040%=      5-min Rain = 0
KKE1 011743Z 04015KT 06/M07 A304 RMK A01 T00611067  RH  039%=      5-min Rain = 0
KKE1 011744Z 03013KT 06/M07 A304 RMK A01 T00611070  RH  038%=      5-min Rain = 0
KKE1 011745Z 03014KT 06/M07 A304 RMK A01 T00611070  RH  039%=      5-min Rain = 0
KKE1 011746Z 03013KT 06/M07 A304 RMK A01 T00601071  RH  038%=      5-min Rain = 0
KKE1 011747Z 02012KT 06/M07 A304 RMK A01 T00581072  RH  039%=      5-min Rain = 0
KKE1 011748Z 00011KT 06/M07 A304 RMK A01 T00571072  RH  039%=      5-min Rain = 0
KKE1 011749Z 03011KT 06/M07 A304 RMK A01 T00551073  RH  039%=      5-min Rain = 0
KKE1 011750Z 04011KT 05/M07 A304 RMK A01 T00541073  RH  039%=      5-min Rain = 0
KKE1 011751Z 04009KT 05/M07 A304 RMK A01 T00541072  RH  040%=      5-min Rain = 0
KKE1 011752Z 02008KT 06/M07 A3039 RMK A01 T00551072  RH  040%=      5-min Rain = 0
KKE1 011753Z 03010KT 06/M07 A304 RMK A01 T00551071  RH  040%=      5-min Rain = 0
KKE1 011754Z 03012KT 06/M07 A304 RMK A01 T00551071  RH  040%=      5-min Rain = 0
KKE1 011755Z 03010KT 06/M07 A304 RMK A01 T00561070  RH  040%=      5-min Rain = 0
KKE1 011756Z 02011G16KT 06/M07 A304 RMK A01 T00571070  RH  040%=      5-min Rain = 0
KKE1 011757Z 03011G16KT 06/M07 A304 RMK A01 T00581070  RH  039%=      5-min Rain = 0
KKE1 011758Z 05011KT 06/M07 A304 RMK A01 T00601069  RH  039%=      5-min Rain = 0
KKE1 011759Z 02010KT 06/M07 A304 RMK A01 T00631067  RH  039%=      5-min Rain = 0
KKE1 011800Z 01011KT 07/M07 A304 RMK A01 T00661068  RH  038%=      5-min Rain = 0
KKE1 011801Z 01011KT 07/M07 A304 RMK A01 T00661069  RH  037%=      5-min Rain = 0
KKE1 011802Z 01009KT 07/M07 A304 RMK A01 T00651072  RH  037%=      5-min Rain = 0
KKE1 011803Z 01008KT 06/M08 A304 RMK A01 T00601075  RH  037%=      5-min Rain = 0
KKE1 011804Z 05009KT 06/M07 A304 RMK A01 T00611071  RH  038%=      5-min Rain = 0
KKE1 011805Z 05011KT 07/M07 A304 RMK A01 T00661068  RH  038%=      5-min Rain = 0
KKE1 011806Z 02011KT 07/M07 A304 RMK A01 T00661070  RH  037%=      5-min Rain = 0
KKE1 011807Z 02009G14KT 07/M07 A304 RMK A01 T00681070  RH  037%=      5-min Rain = 0
KKE1 011808Z 02011KT 07/M07 A304 RMK A01 T00691070  RH  036%=      5-min Rain = 0
KKE1 011809Z 03011KT 07/M07 A304 RMK A01 T00691070  RH  036%=      5-min Rain = 0
KKE1 011810Z 01010KT 07/M07 A304 RMK A01 T00711071  RH  036%=      5-min Rain = 0
KKE1 011811Z 01011KT 07/M08 A304 RMK A01 T00691075  RH  035%=      5-min Rain = 0
KKE1 011812Z 01013KT 07/M08 A304 RMK A01 T00691075  RH  035%=      5-min Rain = 0
KKE1 011813Z 01012KT 07/M08 A304 RMK A01 T00671075  RH  036%=      5-min Rain = 0
KKE1 011814Z 00008KT 07/M07 A304 RMK A01 T00691072  RH  036%=      5-min Rain = 0
KKE1 011815Z 35008KT 07/M07 A304 RMK A01 T00691073  RH  036%=      5-min Rain = 0
KKE1 011816Z 04009KT 07/M07 A304 RMK A01 T00681074  RH  036%=      5-min Rain = 0
KKE1 011817Z 04010KT 07/M07 A304 RMK A01 T00671073  RH  036%=      5-min Rain = 0
KKE1 011818Z 05009G14KT 07/M07 A304 RMK A01 T00651073  RH  037%=      5-min Rain = 0
KKE1 011819Z 04012KT 06/M07 A304 RMK A01 T00641072  RH  037%=      5-min Rain = 0
KKE1 011820Z 03011KT 06/M07 A304 RMK A01 T00641073  RH  037%=      5-min Rain = 0
KKE1 011821Z 03012KT 07/M07 A304 RMK A01 T00661070  RH  037%=      5-min Rain = 0
KKE1 011822Z 02012KT 07/M07 A304 RMK A01 T00711069  RH  036%=      5-min Rain = 0
KKE1 011823Z 04009KT 07/M07 A304 RMK A01 T00661073  RH  036%=      5-min Rain = 0
KKE1 011824Z 04007KT 06/M07 A304 RMK A01 T00631074  RH  037%=      5-min Rain = 0
KKE1 011825Z 02008G15KT 06/M07 A304 RMK A01 T00611073  RH  038%=      5-min Rain = 0
KKE1 011826Z 04013KT 06/M07 A304 RMK A01 T00611072  RH  038%=      5-min Rain = 0
KKE1 011827Z 05010KT 06/M07 A304 RMK A01 T00631073  RH  037%=      5-min Rain = 0
KKE1 011828Z 04008KT 06/M07 A304 RMK A01 T00631074  RH  037%=      5-min Rain = 0
KKE1 011829Z 04011KT 07/M07 A304 RMK A01 T00651071  RH  037%=      5-min Rain = 0
KKE1 011830Z 04010KT 07/M07 A304 RMK A01 T00671072  RH  036%=      5-min Rain = 0
KKE1 011831Z 04008KT 07/M07 A304 RMK A01 T00661074  RH  036%=      5-min Rain = 0
KKE1 011832Z 02009KT 07/M07 A304 RMK A01 T00661072  RH  037%=      5-min Rain = 0
KKE1 011833Z 03010KT 07/M07 A304 RMK A01 T00691068  RH  037%=      5-min Rain = 0
KKE1 011834Z 05011G16KT 07/M07 A304 RMK A01 T00681070  RH  037%=      5-min Rain = 0
KKE1 011835Z 06012KT 07/M07 A304 RMK A01 T00661070  RH  037%=      5-min Rain = 0
KKE1 011836Z 04014KT 07/M07 A304 RMK A01 T00671069  RH  037%=      5-min Rain = 0
KKE1 011837Z 05010KT 07/M07 A304 RMK A01 T00711068  RH  036%=      5-min Rain = 0
KKE1 011838Z 05012KT 07/M07 A304 RMK A01 T00741066  RH  036%=      5-min Rain = 0
KKE1 011839Z 05012KT 08/M07 A304 RMK A01 T00761066  RH  036%=      5-min Rain = 0
KKE1 011840Z 04013KT 07/M07 A304 RMK A01 T00741068  RH  036%=      5-min Rain = 0
KKE1 011841Z 03010KT 07/M08 A304 RMK A01 T00671076  RH  035%=      5-min Rain = 0
KKE1 011842Z 00009KT 06/M08 A304 RMK A01 T00631076  RH  036%=      5-min Rain = 0
KKE1 011843Z 36011KT 06/M08 A304 RMK A01 T00641075  RH  036%=      5-min Rain = 0
KKE1 011844Z 00010KT 06/M08 A304 RMK A01 T00631075  RH  037%=      5-min Rain = 0
KKE1 011845Z 03013KT 06/M07 A304 RMK A01 T00631073  RH  037%=      5-min Rain = 0
KKE1 011846Z 04014KT 06/M07 A304 RMK A01 T00621070  RH  038%=      5-min Rain = 0
KKE1 011847Z 04013KT 06/M07 A304 RMK A01 T00601069  RH  039%=      5-min Rain = 0
KKE1 011848Z 03012KT 06/M07 A304 RMK A01 T00601069  RH  039%=      5-min Rain = 0
KKE1 011849Z 03015KT 06/M07 A304 RMK A01 T00611069  RH  039%=      5-min Rain = 0
KKE1 011850Z 02015G20KT 06/M07 A304 RMK A01 T00631066  RH  039%=      5-min Rain = 0
KKE1 011851Z 02013G19KT 06/M07 A304 RMK A01 T00621066  RH  039%=      5-min Rain = 0
KKE1 011852Z 02013KT 06/M07 A304 RMK A01 T00601068  RH  039%=      5-min Rain = 0
KKE1 011853Z 03008KT 06/M07 A304 RMK A01 T00601067  RH  040%=      5-min Rain = 0
KKE1 011854Z 03009KT 06/M06 A304 RMK A01 T00641064  RH  039%=      5-min Rain = 0
KKE1 011855Z 04009KT 06/M07 A304 RMK A01 T00641065  RH  039%=      5-min Rain = 0
KKE1 011856Z 01007KT 07/M06 A304 RMK A01 T00651064  RH  039%=      5-min Rain = 0
KKE1 011857Z 00008KT 06/M07 A304 RMK A01 T00641067  RH  039%=      5-min Rain = 0
KKE1 011858Z 35009KT 07/M06 A304 RMK A01 T00661064  RH  039%=      5-min Rain = 0
KKE1 011859Z 36009KT 07/M06 A304 RMK A01 T00671063  RH  039%=      5-min Rain = 0
KKE1 011900Z 03013KT 07/M06 A304 RMK A01 T00691060  RH  039%=      5-min Rain = 0
KKE1 011901Z 05013KT 07/M06 A304 RMK A01 T00671064  RH  039%=      5-min Rain = 0
KKE1 011902Z 04011KT 06/M06 A304 RMK A01 T00621064  RH  040%=      5-min Rain = 0
KKE1 011903Z 02009G14KT 06/M06 A304 RMK A01 T00621062  RH  041%=      5-min Rain = 0
KKE1 011904Z 01012KT 06/M06 A304 RMK A01 T00631061  RH  041%=      5-min Rain = 0
KKE1 011905Z 01013KT 06/M06 A304 RMK A01 T00641059  RH  041%=      5-min Rain = 0
KKE1 011906Z 02014G19KT 06/M06 A304 RMK A01 T00641058  RH  041%=      5-min Rain = 0
KKE1 011907Z 03014KT 07/M06 A304 RMK A01 T00651056  RH  042%=      5-min Rain = 0
KKE1 011908Z 03013G18KT 07/M05 A304 RMK A01 T00661054  RH  042%=      5-min Rain = 0
KKE1 011909Z 04013KT 07/M05 A304 RMK A01 T00661054  RH  042%=      5-min Rain = 0
KKE1 011910Z 04014KT 06/M06 A304 RMK A01 T00641055  RH  042%=      5-min Rain = 0
KKE1 011911Z 05012KT 06/M05 A304 RMK A01 T00621054  RH  043%=      5-min Rain = 0
KKE1 011912Z 04013KT 06/M05 A304 RMK A01 T00631052  RH  043%=      5-min Rain = 0
KKE1 011913Z 03013KT 06/M05 A304 RMK A01 T00611054  RH  043%=      5-min Rain = 0
KKE1 011914Z 04013G18KT 06/M06 A304 RMK A01 T00551056  RH  044%=      5-min Rain = 0
KKE1 011915Z 04014KT 06/M05 A304 RMK A01 T00551054  RH  045%=      5-min Rain = 0
KKE1 011916Z 04013KT 06/M05 A304 RMK A01 T00551053  RH  046%=      5-min Rain = 0
KKE1 011917Z 03013KT 06/M05 A304 RMK A01 T00561053  RH  045%=      5-min Rain = 0
KKE1 011918Z 03015KT 06/M05 A304 RMK A01 T00551052  RH  046%=      5-min Rain = 0
KKE1 011919Z 03016KT 06/M05 A304 RMK A01 T00571051  RH  046%=      5-min Rain = 0
KKE1 011920Z 02013KT 06/M05 A304 RMK A01 T00581049  RH  046%=      5-min Rain = 0
KKE1 011921Z 04013KT 06/M05 A304 RMK A01 T00581051  RH  046%=      5-min Rain = 0
KKE1 011922Z 02011KT 05/M05 A304 RMK A01 T00541052  RH  046%=      5-min Rain = 0
KKE1 011923Z 02012KT 05/M05 A304 RMK A01 T00531051  RH  047%=      5-min Rain = 0
KKE1 011924Z 36007KT 05/M05 A304 RMK A01 T00531050  RH  047%=      5-min Rain = 0
KKE1 011925Z 03007KT 06/M05 A304 RMK A01 T00561047  RH  047%=      5-min Rain = 0
KKE1 011926Z 03012G17KT 06/M05 A304 RMK A01 T00591046  RH  047%=      5-min Rain = 0
KKE1 011927Z 02014KT 06/M05 A304 RMK A01 T00601047  RH  046%=      5-min Rain = 0
KKE1 011928Z 02012KT 06/M05 A304 RMK A01 T00591048  RH  046%=      5-min Rain = 0
KKE1 011929Z 03009KT 06/M05 A304 RMK A01 T00591047  RH  047%=      5-min Rain = 0
KKE1 011930Z 02007KT 06/M05 A304 RMK A01 T00571048  RH  047%=      5-min Rain = 0
KKE1 011931Z 03012KT 06/M05 A304 RMK A01 T00591045  RH  047%=      5-min Rain = 0
KKE1 011932Z 03013KT 06/M05 A304 RMK A01 T00581046  RH  047%=      5-min Rain = 0
KKE1 011933Z 03012KT 05/M05 A304 RMK A01 T00541048  RH  048%=      5-min Rain = 0
KKE1 011934Z 03011KT 05/M05 A304 RMK A01 T00531047  RH  049%=      5-min Rain = 0
KKE1 011935Z 01008KT 05/M05 A304 RMK A01 T00531046  RH  049%=      5-min Rain = 0
KKE1 011936Z 35010KT 06/M04 A304 RMK A01 T00551044  RH  049%=      5-min Rain = 0
KKE1 011937Z 01012KT 06/M04 A304 RMK A01 T00551043  RH  049%=      5-min Rain = 0
KKE1 011938Z 03011KT 05/M04 A304 RMK A01 T00541044  RH  049%=      5-min Rain = 0
KKE1 011939Z 02010G15KT 05/M04 A304 RMK A01 T00531044  RH  050%=      5-min Rain = 0
KKE1 011940Z 00012KT 05/M04 A304 RMK A01 T00541041  RH  050%=      5-min Rain = 0
KKE1 011941Z 01013KT 06/M04 A304 RMK A01 T00551040  RH  050%=      5-min Rain = 0
KKE1 011942Z 01010KT 05/M04 A304 RMK A01 T00531042  RH  050%=      5-min Rain = 0
KKE1 011943Z 02011G19KT 05/M04 A304 RMK A01 T00501041  RH  051%=      5-min Rain = 0
KKE1 011944Z 01015KT 05/M04 A304 RMK A01 T00541039  RH  051%=      5-min Rain = 0
KKE1 011945Z 00012KT 05/M04 A304 RMK A01 T00531042  RH  051%=      5-min Rain = 0
KKE1 011946Z 00009KT 05/M04 A304 RMK A01 T00511042  RH  051%=      5-min Rain = 0
KKE1 011947Z 02010KT 05/M04 A3039 RMK A01 T00521040  RH  051%=      5-min Rain = 0
KKE1 011948Z 01012KT 05/M04 A3039 RMK A01 T00541041  RH  051%=      5-min Rain = 0
KKE1 011949Z 03014KT 05/M04 A3039 RMK A01 T00541042  RH  050%=      5-min Rain = 0
KKE1 011950Z 04012KT 05/M05 A304 RMK A01 T00501045  RH  050%=      5-min Rain = 0
KKE1 011951Z 03008KT 05/M05 A304 RMK A01 T00461046  RH  051%=      5-min Rain = 0
KKE1 011952Z 02013G18KT 05/M04 A304 RMK A01 T00461044  RH  052%=      5-min Rain = 0
KKE1 011953Z 01011G16KT 05/M05 A304 RMK A01 T00471045  RH  052%=      5-min Rain = 0
KKE1 011954Z 01008KT 05/M05 A3039 RMK A01 T00461045  RH  052%=      5-min Rain = 0
KKE1 011955Z 03009KT 05/M04 A3039 RMK A01 T00481044  RH  051%=      5-min Rain = 0
KKE1 011956Z 03010KT 05/M04 A3039 RMK A01 T00491043  RH  051%=      5-min Rain = 0
KKE1 011957Z 03011KT 05/M04 A3039 RMK A01 T00491043  RH  051%=      5-min Rain = 0
KKE1 011958Z 03008KT 05/M04 A3039 RMK A01 T00461041  RH  053%=      5-min Rain = 0
KKE1 011959Z 05010KT 05/M04 A3039 RMK A01 T00461040  RH  054%=      5-min Rain = 0
KKE1 012000Z 03009KT 05/M04 A3039 RMK A01 T00461040  RH  054%=      5-min Rain = 0
KKE1 012001Z 01009KT 05/M04 A3039 RMK A01 T00451037  RH  055%=      5-min Rain = 0
KKE1 012002Z 02010KT 05/M03 A304 RMK A01 T00471034  RH  056%=      5-min Rain = 0
KKE1 012003Z 03009KT 05/M04 A3039 RMK A01 T00451036  RH  056%=      5-min Rain = 0
KKE1 012004Z 03013KT 04/M03 A3039 RMK A01 T00441032  RH  058%=      5-min Rain = 0
KKE1 012005Z 01010KT 04/M03 A3039 RMK A01 T00441032  RH  058%=      5-min Rain = 0
KKE1 012006Z 01011KT 04/M03 A3039 RMK A01 T00431031  RH  059%=      5-min Rain = 0
KKE1 012007Z 00011KT 04/M03 A3039 RMK A01 T00431032  RH  059%=      5-min Rain = 0
KKE1 012008Z 35009KT 04/M03 A3039 RMK A01 T00401032  RH  059%=      5-min Rain = 0
KKE1 012009Z 01009KT 04/M03 A3039 RMK A01 T00411031  RH  060%=      5-min Rain = 0
KKE1 012010Z 02009KT 04/M03 A3039 RMK A01 T00411030  RH  060%=      5-min Rain = 0
KKE1 012011Z 03010KT 04/M03 A3039 RMK A01 T00411029  RH  060%=      5-min Rain = 0
KKE1 012012Z 02011KT 04/M03 A3039 RMK A01 T00421028  RH  060%=      5-min Rain = 0
KKE1 012013Z 01008KT 04/M03 A3039 RMK A01 T00411029  RH  060%=      5-min Rain = 0
KKE1 012014Z 03008KT 04/M03 A3039 RMK A01 T00401029  RH  061%=      5-min Rain = 0
KKE1 012015Z 02008KT 04/M03 A3039 RMK A01 T00391029  RH  061%=      5-min Rain = 0
KKE1 012016Z 03011KT 04/M03 A3039 RMK A01 T00391027  RH  062%=      5-min Rain = 0
KKE1 012017Z 01010KT 04/M03 A3039 RMK A01 T00391026  RH  063%=      5-min Rain = 0
KKE1 012018Z 36007KT 04/M03 A3039 RMK A01 T00381026  RH  063%=      5-min Rain = 0
KKE1 012019Z 02008KT 04/M02 A3039 RMK A01 T00391024  RH  064%=      5-min Rain = 0
KKE1 012020Z 03011KT 04/M02 A3039 RMK A01 T00411023  RH  063%=      5-min Rain = 0
KKE1 012021Z 03011KT 04/M03 A3039 RMK A01 T00411025  RH  062%=      5-min Rain = 0
KKE1 012022Z 02010KT 04/M03 A3039 RMK A01 T00391025  RH  063%=      5-min Rain = 0
KKE1 012023Z 02009KT 04/M02 A3039 RMK A01 T00381024  RH  064%=      5-min Rain = 0
KKE1 012024Z 01007KT 04/M02 A3039 RMK A01 T00361024  RH  065%=      5-min Rain = 0
KKE1 012025Z 01008KT 04/M02 A3039 RMK A01 T00361024  RH  065%=      5-min Rain = 0
KKE1 012026Z 02011KT 04/M02 A3039 RMK A01 T00361023  RH  065%=      5-min Rain = 0
KKE1 012027Z 02011KT 04/M02 A3039 RMK A01 T00351023  RH  066%=      5-min Rain = 0
KKE1 012028Z 01011KT 04/M02 A3039 RMK A01 T00351022  RH  066%=      5-min Rain = 0
KKE1 012029Z 01011KT 03/M02 A3039 RMK A01 T00341022  RH  067%=      5-min Rain = 0
KKE1 012030Z 01010KT 03/M02 A3039 RMK A01 T00331022  RH  067%=      5-min Rain = 0
KKE1 012031Z 35008KT 03/M02 A3039 RMK A01 T00341022  RH  067%=      5-min Rain = 0
KKE1 012032Z 35010KT 04/M02 A3039 RMK A01 T00351022  RH  067%=      5-min Rain = 0
KKE1 012033Z 00011KT 04/M02 A3039 RMK A01 T00351022  RH  066%=      5-min Rain = 0
KKE1 012034Z 00009KT 03/M02 A3039 RMK A01 T00341023  RH  066%=      5-min Rain = 0
KKE1 012035Z 02008KT 03/M02 A3039 RMK A01 T00341022  RH  067%=      5-min Rain = 0
KKE1 012036Z 02010KT 04/M02 A3039 RMK A01 T00371020  RH  066%=      5-min Rain = 0
KKE1 012037Z 02007KT 04/M02 A3039 RMK A01 T00361021  RH  066%=      5-min Rain = 0
KKE1 012038Z 00008KT 04/M02 A3039 RMK A01 T00351020  RH  067%=      5-min Rain = 0
KKE1 012039Z 00008KT 04/M02 A3039 RMK A01 T00361019  RH  067%=      5-min Rain = 0
KKE1 012040Z 35006KT 04/M02 A3039 RMK A01 T00371019  RH  067%=      5-min Rain = 0
KKE1 012041Z 03008G13KT 04/M02 A3039 RMK A01 T00381018  RH  066%=      5-min Rain = 0
KKE1 012042Z 04012KT 04/M02 A3039 RMK A01 T00381021  RH  065%=      5-min Rain = 0
KKE1 012043Z 03011KT 04/M02 A3039 RMK A01 T00361023  RH  065%=      5-min Rain = 0
KKE1 012044Z 04009KT 03/M02 A3039 RMK A01 T00341022  RH  067%=      5-min Rain = 0
KKE1 012045Z 03009KT 03/M02 A3039 RMK A01 T00341021  RH  067%=      5-min Rain = 0
KKE1 012046Z 05010KT 03/M02 A3039 RMK A01 T00341021  RH  067%=      5-min Rain = 0
KKE1 012047Z 05009KT 04/M02 A3039 RMK A01 T00351021  RH  067%=      5-min Rain = 0
KKE1 012048Z 04009KT 03/M02 A3039 RMK A01 T00331022  RH  067%=      5-min Rain = 0
KKE1 012049Z 03009KT 03/M02 A3039 RMK A01 T00321022  RH  067%=      5-min Rain = 0
KKE1 012050Z 04010KT 03/M02 A3039 RMK A01 T00331023  RH  067%=      5-min Rain = 0
KKE1 012051Z 04009KT 03/M02 A3039 RMK A01 T00341022  RH  067%=      5-min Rain = 0
KKE1 012052Z 04008KT 03/M02 A3039 RMK A01 T00341022  RH  067%=      5-min Rain = 0
KKE1 012053Z 03007KT 03/M02 A3039 RMK A01 T00341021  RH  067%=      5-min Rain = 0
KKE1 012054Z 03007KT 04/M02 A3039 RMK A01 T00361020  RH  067%=      5-min Rain = 0
KKE1 012055Z 04010KT 04/M02 A3039 RMK A01 T00371021  RH  066%=      5-min Rain = 0
KKE1 012056Z 03009KT 04/M02 A3039 RMK A01 T00361022  RH  066%=      5-min Rain = 0
KKE1 012057Z 04006KT 04/M02 A3039 RMK A01 T00351022  RH  067%=      5-min Rain = 0
KKE1 012058Z 04006KT 03/M02 A3039 RMK A01 T00341021  RH  067%=      5-min Rain = 0
KKE1 012059Z 02006KT 03/M02 A3039 RMK A01 T00341021  RH  067%=      5-min Rain = 0
KKE1 012100Z 03005KT 03/M02 A3039 RMK A01 T00341021  RH  068%=      5-min Rain = 0
KKE1 012101Z 02006KT 03/M02 A3039 RMK A01 T00341020  RH  068%=      5-min Rain = 0
KKE1 012102Z 04008KT 04/M02 A3039 RMK A01 T00361020  RH  067%=      5-min Rain = 0
KKE1 012103Z 03008KT 04/M02 A3039 RMK A01 T00361023  RH  065%=      5-min Rain = 0
KKE1 012104Z 03007KT 04/M02 A3039 RMK A01 T00361024  RH  065%=      5-min Rain = 0
KKE1 012105Z 02005KT 04/M02 A3039 RMK A01 T00371024  RH  064%=      5-min Rain = 0
KKE1 012106Z 03007KT 04/M02 A3039 RMK A01 T00361024  RH  065%=      5-min Rain = 0
KKE1 012107Z 04004KT 03/M02 A3039 RMK A01 T00341024  RH  065%=      5-min Rain = 0
KKE1 012108Z 02007KT 03/M02 A3039 RMK A01 T00341023  RH  066%=      5-min Rain = 0
KKE1 012109Z 05008KT 04/M02 A3039 RMK A01 T00351023  RH  066%=      5-min Rain = 0
KKE1 012110Z 05007KT 04/M02 A3039 RMK A01 T00361023  RH  065%=      5-min Rain = 0
KKE1 012111Z 04006KT 04/M02 A3039 RMK A01 T00371024  RH  065%=      5-min Rain = 0
KKE1 012112Z 02008KT 04/M02 A3039 RMK A01 T00381023  RH  065%=      5-min Rain = 0
KKE1 012113Z 02008KT 04/M02 A3039 RMK A01 T00391023  RH  064%=      5-min Rain = 0
KKE1 012114Z 02006KT 04/M02 A3039 RMK A01 T00381024  RH  064%=      5-min Rain = 0
KKE1 012115Z 01007KT 04/M02 A3039 RMK A01 T00381023  RH  064%=      5-min Rain = 0
KKE1 012116Z 01007KT 04/M02 A3039 RMK A01 T00391023  RH  064%=      5-min Rain = 0
KKE1 012117Z 04008KT 04/M02 A3039 RMK A01 T00411022  RH  064%=      5-min Rain = 0
KKE1 012118Z 04008KT 04/M02 A3039 RMK A01 T00411023  RH  063%=      5-min Rain = 0
KKE1 012119Z 03006KT 04/M02 A3039 RMK A01 T00391023  RH  064%=      5-min Rain = 0
KKE1 012120Z 03006KT 04/M02 A3039 RMK A01 T00391023  RH  064%=      5-min Rain = 0
KKE1 012121Z 04006KT 04/M02 A3039 RMK A01 T00401022  RH  064%=      5-min Rain = 0
KKE1 012122Z 04008KT 04/M02 A3039 RMK A01 T00401022  RH  064%=      5-min Rain = 0
KKE1 012123Z 04008KT 04/M02 A3039 RMK A01 T00401023  RH  064%=      5-min Rain = 0
KKE1 012124Z 06005KT 04/M02 A3039 RMK A01 T00391023  RH  064%=      5-min Rain = 0
KKE1 012125Z 05004KT 04/M02 A3039 RMK A01 T00421021  RH  064%=      5-min Rain = 0
KKE1 012126Z 06004KT 04/M02 A3039 RMK A01 T00431022  RH  063%=      5-min Rain = 0
KKE1 012127Z 04005KT 04/M02 A3039 RMK A01 T00431022  RH  062%=      5-min Rain = 0
KKE1 012128Z 04007KT 04/M02 A3039 RMK A01 T00441022  RH  062%=      5-min Rain = 0
KKE1 012129Z 04008KT 05/M02 A3039 RMK A01 T00451022  RH  062%=      5-min Rain = 0
KKE1 012130Z 05006KT 04/M02 A3039 RMK A01 T00431023  RH  062%=      5-min Rain = 0
KKE1 012131Z 04004KT 04/M02 A3039 RMK A01 T00421023  RH  063%=      5-min Rain = 0
KKE1 012132Z 02005KT 04/M02 A3039 RMK A01 T00411022  RH  063%=      5-min Rain = 0
KKE1 012133Z 05006KT 04/M02 A3039 RMK A01 T00421021  RH  063%=      5-min Rain = 0
KKE1 012134Z 04004KT 04/M02 A3039 RMK A01 T00421022  RH  063%=      5-min Rain = 0
KKE1 012135Z 03005KT 04/M02 A3039 RMK A01 T00421022  RH  063%=      5-min Rain = 0
KKE1 012136Z 03008KT 04/M02 A3039 RMK A01 T00421023  RH  063%=      5-min Rain = 0
KKE1 012137Z 04009KT 04/M03 A3039 RMK A01 T00421025  RH  062%=      5-min Rain = 0
KKE1 012138Z 04008KT 04/M03 A3039 RMK A01 T00421025  RH  062%=      5-min Rain = 0
KKE1 012139Z 03007KT 04/M02 A3039 RMK A01 T00421024  RH  062%=      5-min Rain = 0
KKE1 012140Z 02007KT 04/M02 A3039 RMK A01 T00421024  RH  062%=      5-min Rain = 0
KKE1 012141Z 02009KT 04/M02 A3039 RMK A01 T00431023  RH  062%=      5-min Rain = 0
KKE1 012142Z 04009KT 04/M02 A3039 RMK A01 T00421024  RH  062%=      5-min Rain = 0
KKE1 012143Z 02007KT 04/M02 A3039 RMK A01 T00421023  RH  063%=      5-min Rain = 0
KKE1 012144Z 04007KT 04/M02 A3039 RMK A01 T00421023  RH  062%=      5-min Rain = 0
KKE1 012145Z 03006KT 04/M02 A3039 RMK A01 T00421023  RH  062%=      5-min Rain = 0
KKE1 012146Z 03006KT 04/M02 A3039 RMK A01 T00421023  RH  062%=      5-min Rain = 0
KKE1 012147Z 01007KT 04/M02 A3039 RMK A01 T00431022  RH  062%=      5-min Rain = 0
KKE1 012148Z 03005KT 04/M02 A3039 RMK A01 T00431022  RH  062%=      5-min Rain = 0
KKE1 012149Z 04005KT 04/M02 A3039 RMK A01 T00441022  RH  062%=      5-min Rain = 0
KKE1 012150Z 04010KT 05/M02 A3038 RMK A01 T00451022  RH  062%=      5-min Rain = 0
KKE1 012151Z 03008KT 05/M02 A3039 RMK A01 T00451022  RH  062%=      5-min Rain = 0
KKE1 012152Z 02005KT 04/M02 A3039 RMK A01 T00431023  RH  062%=      5-min Rain = 0
KKE1 012153Z 01007KT 04/M02 A3039 RMK A01 T00411023  RH  063%=      5-min Rain = 0
KKE1 012154Z 03006KT 04/M02 A3039 RMK A01 T00411022  RH  063%=      5-min Rain = 0
KKE1 012155Z 02008KT 04/M02 A3039 RMK A01 T00411022  RH  063%=      5-min Rain = 0
KKE1 012156Z 03009KT 04/M02 A3039 RMK A01 T00421022  RH  063%=      5-min Rain = 0
KKE1 012157Z 03008KT 04/M02 A3039 RMK A01 T00411022  RH  063%=      5-min Rain = 0
KKE1 012158Z 03007KT 04/M02 A3038 RMK A01 T00401023  RH  064%=      5-min Rain = 0
KKE1 012159Z 05006KT 04/M02 A3038 RMK A01 T00401022  RH  064%=      5-min Rain = 0
KKE1 012200Z 04005KT 04/M02 A3038 RMK A01 T00391022  RH  064%=      5-min Rain = 0
KKE1 012201Z 02008KT 04/M02 A3038 RMK A01 T00381022  RH  065%=      5-min Rain = 0
KKE1 012202Z 02008KT 04/M02 A3038 RMK A01 T00391021  RH  065%=      5-min Rain = 0
KKE1 012203Z 03007KT 04/M02 A3038 RMK A01 T00401021  RH  064%=      5-min Rain = 0
KKE1 012204Z 02007KT 04/M02 A3038 RMK A01 T00401021  RH  064%=      5-min Rain = 0
KKE1 012205Z 02008KT 04/M02 A3038 RMK A01 T00411021  RH  064%=      5-min Rain = 0
KKE1 012206Z 02007KT 04/M02 A3038 RMK A01 T00411021  RH  064%=      5-min Rain = 0
KKE1 012207Z 01006KT 04/M02 A3038 RMK A01 T00401022  RH  064%=      5-min Rain = 0
KKE1 012208Z 02007KT 04/M02 A3038 RMK A01 T00411021  RH  064%=      5-min Rain = 0
KKE1 012209Z 04009KT 04/M02 A3038 RMK A01 T00411021  RH  064%=      5-min Rain = 0
KKE1 012210Z 04011KT 04/M02 A3039 RMK A01 T00421021  RH  064%=      5-min Rain = 0
KKE1 012211Z 04008KT 04/M02 A3039 RMK A01 T00411022  RH  064%=      5-min Rain = 0
KKE1 012212Z 04008KT 04/M02 A3039 RMK A01 T00401022  RH  064%=      5-min Rain = 0
KKE1 012213Z 04008KT 04/M02 A3039 RMK A01 T00401021  RH  064%=      5-min Rain = 0
KKE1 012214Z 03007KT 04/M02 A3039 RMK A01 T00401021  RH  064%=      5-min Rain = 0
KKE1 012215Z 03007KT 04/M02 A3039 RMK A01 T00401021  RH  064%=      5-min Rain = 0
KKE1 012216Z 04007KT 04/M02 A3039 RMK A01 T00401022  RH  064%=      5-min Rain = 0
KKE1 012217Z 05006KT 04/M02 A3039 RMK A01 T00401021  RH  064%=      5-min Rain = 0
KKE1 012218Z 06006KT 04/M02 A3039 RMK A01 T00401021  RH  064%=      5-min Rain = 0
KKE1 012219Z 04006KT 04/M02 A3039 RMK A01 T00401021  RH  064%=      5-min Rain = 0
KKE1 012220Z 03008KT 04/M02 A3039 RMK A01 T00401021  RH  064%=      5-min Rain = 0
KKE1 012221Z 04006KT 04/M02 A3039 RMK A01 T00411021  RH  064%=      5-min Rain = 0
KKE1 012222Z 05006KT 04/M02 A3039 RMK A01 T00411021  RH  064%=      5-min Rain = 0
KKE1 012223Z 06007KT 04/M02 A3039 RMK A01 T00411021  RH  064%=      5-min Rain = 0
KKE1 012224Z 06006KT 04/M02 A3039 RMK A01 T00411022  RH  064%=      5-min Rain = 0
KKE1 012225Z 07005KT 04/M02 A3039 RMK A01 T00421022  RH  063%=      5-min Rain = 0
KKE1 012226Z 06006KT 04/M02 A3039 RMK A01 T00431022  RH  063%=      5-min Rain = 0
KKE1 012227Z 07006KT 04/M02 A3039 RMK A01 T00421023  RH  062%=      5-min Rain = 0
KKE1 012228Z 08008KT 04/M02 A3039 RMK A01 T00431022  RH  063%=      5-min Rain = 0
KKE1 012229Z 07006KT 04/M02 A3039 RMK A01 T00441022  RH  062%=      5-min Rain = 0
KKE1 012230Z 05007KT 05/M02 A3039 RMK A01 T00451022  RH  062%=      5-min Rain = 0
KKE1 012231Z 07007KT 05/M02 A3039 RMK A01 T00451022  RH  061%=      5-min Rain = 0
KKE1 012232Z 06005KT 05/M02 A3039 RMK A01 T00461022  RH  061%=      5-min Rain = 0
KKE1 012233Z 05006KT 05/M02 A3039 RMK A01 T00471022  RH  061%=      5-min Rain = 0
KKE1 012234Z 04009KT 05/M02 A3039 RMK A01 T00461023  RH  061%=      5-min Rain = 0
KKE1 012235Z 04008KT 05/M02 A3039 RMK A01 T00451024  RH  061%=      5-min Rain = 0
KKE1 012236Z 04007KT 04/M03 A3039 RMK A01 T00441025  RH  061%=      5-min Rain = 0
KKE1 012237Z 04006KT 04/M03 A3039 RMK A01 T00441025  RH  061%=      5-min Rain = 0
KKE1 012238Z 05006KT 04/M02 A3039 RMK A01 T00431024  RH  062%=      5-min Rain = 0
KKE1 012239Z 05005KT 04/M02 A3039 RMK A01 T00431023  RH  062%=      5-min Rain = 0
KKE1 012240Z 07007KT 04/M02 A3039 RMK A01 T00441023  RH  062%=      5-min Rain = 0
KKE1 012241Z 08006KT 05/M02 A3039 RMK A01 T00451023  RH  062%=      5-min Rain = 0
KKE1 012242Z 07007KT 04/M02 A3039 RMK A01 T00441023  RH  062%=      5-min Rain = 0
KKE1 012243Z 05006KT 04/M02 A3039 RMK A01 T00441023  RH  062%=      5-min Rain = 0
KKE1 012244Z 04007KT 04/M02 A3039 RMK A01 T00441023  RH  062%=      5-min Rain = 0
KKE1 012245Z 02008KT 04/M02 A3039 RMK A01 T00441024  RH  061%=      5-min Rain = 0
KKE1 012246Z 04008KT 05/M02 A3039 RMK A01 T00451024  RH  061%=      5-min Rain = 0
KKE1 012247Z 04007KT 05/M03 A3039 RMK A01 T00451025  RH  061%=      5-min Rain = 0
KKE1 012248Z 06007KT 04/M03 A3039 RMK A01 T00441025  RH  061%=      5-min Rain = 0
KKE1 012249Z 06007KT 04/M03 A3039 RMK A01 T00441025  RH  061%=      5-min Rain = 0
KKE1 012250Z 05006KT 05/M03 A3039 RMK A01 T00451025  RH  061%=      5-min Rain = 0
KKE1 012251Z 05007KT 04/M03 A3039 RMK A01 T00441025  RH  061%=      5-min Rain = 0
KKE1 012252Z 06007KT 04/M03 A3039 RMK A01 T00431027  RH  060%=      5-min Rain = 0
KKE1 012253Z 06007KT 04/M03 A3039 RMK A01 T00431026  RH  061%=      5-min Rain = 0
KKE1 012254Z 06006KT 04/M03 A3039 RMK A01 T00431026  RH  061%=      5-min Rain = 0
KKE1 012255Z 06007KT 04/M03 A3039 RMK A01 T00431025  RH  061%=      5-min Rain = 0
KKE1 012256Z 04007KT 04/M03 A3039 RMK A01 T00441025  RH  061%=      5-min Rain = 0
KKE1 012257Z 05007KT 04/M03 A3039 RMK A01 T00441027  RH  060%=      5-min Rain = 0
KKE1 012258Z 06010KT 04/M03 A3039 RMK A01 T00441028  RH  060%=      5-min Rain = 0
KKE1 012259Z 06008KT 04/M03 A3039 RMK A01 T00441029  RH  059%=      5-min Rain = 0
KKE1 012300Z 06007KT 04/M03 A3039 RMK A01 T00441028  RH  059%=      5-min Rain = 0
KKE1 012301Z 06005KT 04/M03 A3039 RMK A01 T00441028  RH  059%=      5-min Rain = 0
KKE1 012302Z 06005KT 04/M03 A3039 RMK A01 T00431028  RH  060%=      5-min Rain = 0
KKE1 012303Z 06008KT 04/M03 A3039 RMK A01 T00431026  RH  061%=      5-min Rain = 0
KKE1 012304Z 05009KT 04/M02 A3039 RMK A01 T00431024  RH  062%=      5-min Rain = 0
KKE1 012305Z 06008KT 04/M02 A3039 RMK A01 T00431023  RH  062%=      5-min Rain = 0
KKE1 012306Z 06008KT 04/M02 A3039 RMK A01 T00431023  RH  062%=      5-min Rain = 0
KKE1 012307Z 05007KT 04/M02 A3039 RMK A01 T00431022  RH  062%=      5-min Rain = 0
KKE1 012308Z 05006KT 04/M02 A3039 RMK A01 T00431022  RH  063%=      5-min Rain = 0
KKE1 012309Z 06005KT 04/M02 A3039 RMK A01 T00441021  RH  063%=      5-min Rain = 0
KKE1 012310Z 06007KT 04/M02 A3039 RMK A01 T00441020  RH  063%=      5-min Rain = 0
KKE1 012311Z 05007KT 04/M02 A3039 RMK A01 T00441020  RH  063%=      5-min Rain = 0
KKE1 012312Z 04007KT 04/M02 A3039 RMK A01 T00421021  RH  064%=      5-min Rain = 0
KKE1 012313Z 05007KT 04/M02 A3039 RMK A01 T00411021  RH  064%=      5-min Rain = 0
KKE1 012314Z 06006KT 04/M02 A3039 RMK A01 T00411020  RH  064%=      5-min Rain = 0
KKE1 012315Z 06004KT 04/M02 A3039 RMK A01 T00411021  RH  064%=      5-min Rain = 0
KKE1 012316Z 03006KT 04/M02 A3039 RMK A01 T00421020  RH  064%=      5-min Rain = 0
KKE1 012317Z 03008KT 04/M02 A3039 RMK A01 T00421019  RH  065%=      5-min Rain = 0
KKE1 012318Z 02007KT 04/M02 A3039 RMK A01 T00411018  RH  065%=      5-min Rain = 0
KKE1 012319Z 02007KT 04/M02 A3039 RMK A01 T00411019  RH  065%=      5-min Rain = 0
KKE1 012320Z 03005KT 04/M02 A3039 RMK A01 T00411019  RH  065%=      5-min Rain = 0
KKE1 012321Z 04007KT 04/M02 A3039 RMK A01 T00421019  RH  065%=      5-min Rain = 0
KKE1 012322Z 04007KT 04/M02 A3039 RMK A01 T00421019  RH  064%=      5-min Rain = 0
KKE1 012323Z 04008KT 04/M02 A3039 RMK A01 T00421018  RH  065%=      5-min Rain = 0
KKE1 012324Z 05007KT 04/M02 A3039 RMK A01 T00411018  RH  065%=      5-min Rain = 0
KKE1 012325Z 05006KT 04/M02 A3039 RMK A01 T00411018  RH  065%=      5-min Rain = 0
KKE1 012326Z 03005KT 04/M02 A3039 RMK A01 T00411018  RH  065%=      5-min Rain = 0
KKE1 012327Z 04006KT 04/M02 A3039 RMK A01 T00411018  RH  065%=      5-min Rain = 0
KKE1 012328Z 04006KT 04/M02 A3039 RMK A01 T00421018  RH  065%=      5-min Rain = 0
KKE1 012329Z 04008KT 04/M02 A3039 RMK A01 T00421018  RH  065%=      5-min Rain = 0
KKE1 012330Z 03009KT 04/M02 A3039 RMK A01 T00411019  RH  065%=      5-min Rain = 0
KKE1 012331Z 03008KT 04/M02 A3039 RMK A01 T00411018  RH  065%=      5-min Rain = 0
KKE1 012332Z 05006KT 04/M02 A3039 RMK A01 T00411018  RH  065%=      5-min Rain = 0
KKE1 012333Z 04007KT 04/M02 A3039 RMK A01 T00411018  RH  065%=      5-min Rain = 0
KKE1 012334Z 04007KT 04/M02 A3039 RMK A01 T00421017  RH  065%=      5-min Rain = 0
KKE1 012335Z 05005KT 04/M02 A3039 RMK A01 T00411017  RH  066%=      5-min Rain = 0
KKE1 012336Z 06005KT 04/M02 A3039 RMK A01 T00411016  RH  066%=      5-min Rain = 0
KKE1 012337Z 06005KT 04/M02 A3039 RMK A01 T00411016  RH  066%=      5-min Rain = 0
KKE1 012338Z 05006KT 04/M02 A3039 RMK A01 T00421016  RH  066%=      5-min Rain = 0
KKE1 012339Z 06005KT 04/M02 A3039 RMK A01 T00421015  RH  067%=      5-min Rain = 0
KKE1 012340Z 05004KT 04/M02 A3039 RMK A01 T00421015  RH  067%=      5-min Rain = 0
KKE1 012341Z 06006KT 04/M02 A3039 RMK A01 T00421015  RH  067%=      5-min Rain = 0
KKE1 012342Z 04006KT 04/M02 A3039 RMK A01 T00421015  RH  067%=      5-min Rain = 0
KKE1 012343Z 06006KT 04/M02 A3039 RMK A01 T00411015  RH  067%=      5-min Rain = 0
KKE1 012344Z 05005KT 04/M01 A3039 RMK A01 T00411014  RH  067%=      5-min Rain = 0
KKE1 012345Z 05006KT 04/M02 A3039 RMK A01 T00421015  RH  067%=      5-min Rain = 0
KKE1 012346Z 04005KT 04/M02 A3039 RMK A01 T00421015  RH  067%=      5-min Rain = 0
KKE1 012347Z 03005KT 04/M01 A3039 RMK A01 T00421014  RH  067%=      5-min Rain = 0
KKE1 012348Z 03007KT 04/M01 A3039 RMK A01 T00421013  RH  067%=      5-min Rain = 0
KKE1 012349Z 03009KT 04/M01 A3039 RMK A01 T00401014  RH  068%=      5-min Rain = 0
KKE1 012350Z 03009KT 04/M01 A3039 RMK A01 T00391014  RH  068%=      5-min Rain = 0
KKE1 012351Z 05007KT 04/M01 A3039 RMK A01 T00391014  RH  069%=      5-min Rain = 0
KKE1 012352Z 04008KT 04/M01 A3039 RMK A01 T00391014  RH  069%=      5-min Rain = 0
KKE1 012353Z 03010KT 04/M01 A3039 RMK A01 T00391014  RH  069%=      5-min Rain = 0
KKE1 012354Z 03009KT 04/M01 A3039 RMK A01 T00381014  RH  069%=      5-min Rain = 0
KKE1 012355Z 04008KT 04/M01 A3039 RMK A01 T00381014  RH  069%=      5-min Rain = 0
KKE1 012356Z 04008KT 04/M01 A3039 RMK A01 T00381014  RH  069%=      5-min Rain = 0
KKE1 012357Z 04009KT 04/M01 A3039 RMK A01 T00381014  RH  069%=      5-min Rain = 0
KKE1 012358Z 04009KT 04/M01 A3039 RMK A01 T00371014  RH  069%=      5-min Rain = 0
KKE1 012359Z 04009KT 04/M01 A3039 RMK A01 T00371014  RH  069%=      5-min Rain = 0
KKE1 020000Z 03010KT 04/M01 A3039 RMK A01 T00381013  RH  069%=      5-min Rain = 0
KKE1 020001Z 04010KT 04/M01 A304 RMK A01 T00381013  RH  069%=      5-min Rain = 0
KKE1 020002Z 04009KT 04/M01 A304 RMK A01 T00371014  RH  069%=      5-min Rain = 0
KKE1 020003Z 04008KT 04/M01 A304 RMK A01 T00371014  RH  069%=      5-min Rain = 0
KKE1 020004Z 05008KT 04/M02 A304 RMK A01 T00371015  RH  069%=      5-min Rain = 0
KKE1 020005Z 05008KT 04/M02 A304 RMK A01 T00371015  RH  069%=      5-min Rain = 0
KKE1 020006Z 06007KT 04/M02 A304 RMK A01 T00371015  RH  069%=      5-min Rain = 0
KKE1 020007Z 05006KT 04/M02 A304 RMK A01 T00371016  RH  068%=      5-min Rain = 0
KKE1 020008Z 05008KT 04/M02 A304 RMK A01 T00381016  RH  068%=      5-min Rain = 0
KKE1 020009Z 04008KT 04/M02 A304 RMK A01 T00381017  RH  067%=      5-min Rain = 0
KKE1 020010Z 05006KT 04/M02 A304 RMK A01 T00381018  RH  067%=      5-min Rain = 0
KKE1 020011Z 04007KT 04/M02 A304 RMK A01 T00371019  RH  067%=      5-min Rain = 0
KKE1 020012Z 04007KT 04/M02 A304 RMK A01 T00371019  RH  067%=      5-min Rain = 0
KKE1 020013Z 04007KT 04/M02 A304 RMK A01 T00381019  RH  067%=      5-min Rain = 0
KKE1 020014Z 04006KT 04/M02 A304 RMK A01 T00381019  RH  066%=      5-min Rain = 0
KKE1 020015Z 04006KT 04/M02 A304 RMK A01 T00371019  RH  067%=      5-min Rain = 0
KKE1 020016Z 06009KT 04/M02 A304 RMK A01 T00381019  RH  066%=      5-min Rain = 0
KKE1 020017Z 06008KT 04/M02 A304 RMK A01 T00381021  RH  066%=      5-min Rain = 0
KKE1 020018Z 07006KT 04/M02 A304 RMK A01 T00381021  RH  065%=      5-min Rain = 0
KKE1 020019Z 06007KT 04/M02 A304 RMK A01 T00381021  RH  065%=      5-min Rain = 0
KKE1 020020Z 06008KT 04/M02 A304 RMK A01 T00391022  RH  065%=      5-min Rain = 0
KKE1 020021Z 06007KT 04/M02 A304 RMK A01 T00391023  RH  064%=      5-min Rain = 0
KKE1 020022Z 05007KT 04/M02 A304 RMK A01 T00391023  RH  064%=      5-min Rain = 0
KKE1 020023Z 06007KT 04/M02 A304 RMK A01 T00381023  RH  064%=      5-min Rain = 0
KKE1 020024Z 06006KT 04/M02 A304 RMK A01 T00381023  RH  065%=      5-min Rain = 0
KKE1 020025Z 05005KT 04/M02 A304 RMK A01 T00381022  RH  065%=      5-min Rain = 0
KKE1 020026Z 06005KT 04/M02 A304 RMK A01 T00381023  RH  064%=      5-min Rain = 0
KKE1 020027Z 06006KT 04/M02 A304 RMK A01 T00391023  RH  064%=      5-min Rain = 0
KKE1 020028Z 07006KT 04/M02 A304 RMK A01 T00391023  RH  064%=      5-min Rain = 0
KKE1 020029Z 07007KT 04/M02 A304 RMK A01 T00401022  RH  064%=      5-min Rain = 0
KKE1 020030Z 07007KT 04/M02 A304 RMK A01 T00391022  RH  065%=      5-min Rain = 0
KKE1 020031Z 07007KT 04/M02 A304 RMK A01 T00391021  RH  065%=      5-min Rain = 0
KKE1 020032Z 08006KT 04/M02 A304 RMK A01 T00381021  RH  065%=      5-min Rain = 0
KKE1 020033Z 08007KT 04/M02 A304 RMK A01 T00391021  RH  065%=      5-min Rain = 0
KKE1 020034Z 08006KT 04/M02 A304 RMK A01 T00391020  RH  065%=      5-min Rain = 0
KKE1 020035Z 08007KT 04/M02 A304 RMK A01 T00391020  RH  065%=      5-min Rain = 0
KKE1 020036Z 05007KT 04/M02 A304 RMK A01 T00391020  RH  065%=      5-min Rain = 0
KKE1 020037Z 05006KT 04/M02 A304 RMK A01 T00391020  RH  065%=      5-min Rain = 0
KKE1 020038Z 08007KT 04/M02 A304 RMK A01 T00391019  RH  066%=      5-min Rain = 0
KKE1 020039Z 08006KT 04/M02 A304 RMK A01 T00391019  RH  066%=      5-min Rain = 0
KKE1 020040Z 07006KT 04/M02 A304 RMK A01 T00391019  RH  066%=      5-min Rain = 0
KKE1 020041Z 07007KT 04/M02 A304 RMK A01 T00401019  RH  065%=      5-min Rain = 0
KKE1 020042Z 08009KT 04/M02 A304 RMK A01 T00401019  RH  065%=      5-min Rain = 0
KKE1 020043Z 09009KT 04/M02 A304 RMK A01 T00391021  RH  065%=      5-min Rain = 0
KKE1 020044Z 09009KT 04/M02 A304 RMK A01 T00391021  RH  065%=      5-min Rain = 0
KKE1 020045Z 09008KT 04/M02 A304 RMK A01 T00381022  RH  065%=      5-min Rain = 0
KKE1 020046Z 08009KT 04/M02 A304 RMK A01 T00381022  RH  065%=      5-min Rain = 0
KKE1 020047Z 09008KT 04/M02 A304 RMK A01 T00381022  RH  065%=      5-min Rain = 0
KKE1 020048Z 08008KT 04/M02 A304 RMK A01 T00381022  RH  065%=      5-min Rain = 0
KKE1 020049Z 09006KT 04/M02 A304 RMK A01 T00381023  RH  065%=      5-min Rain = 0
KKE1 020050Z 08006KT 04/M02 A304 RMK A01 T00381023  RH  064%=      5-min Rain = 0
KKE1 020051Z 09006KT 04/M02 A304 RMK A01 T00381023  RH  064%=      5-min Rain = 0
KKE1 020052Z 10006KT 04/M02 A304 RMK A01 T00381023  RH  064%=      5-min Rain = 0
KKE1 020053Z 09007KT 04/M02 A304 RMK A01 T00381023  RH  064%=      5-min Rain = 0
KKE1 020054Z 08007KT 04/M03 A304 RMK A01 T00381025  RH  063%=      5-min Rain = 0
KKE1 020055Z 08008KT 04/M03 A304 RMK A01 T00381026  RH  063%=      5-min Rain = 0
KKE1 020056Z 08007KT 04/M03 A304 RMK A01 T00381026  RH  063%=      5-min Rain = 0
KKE1 020057Z 08008KT 04/M03 A304 RMK A01 T00381026  RH  063%=      5-min Rain = 0
KKE1 020058Z 09008KT 04/M03 A304 RMK A01 T00381027  RH  063%=      5-min Rain = 0
KKE1 020059Z 08008KT 04/M03 A304 RMK A01 T00371028  RH  062%=      5-min Rain = 0
KKE1 020100Z 08009KT 04/M03 A304 RMK A01 T00371027  RH  063%=      5-min Rain = 0
KKE1 020101Z 07008KT 04/M03 A304 RMK A01 T00371028  RH  062%=      5-min Rain = 0
KKE1 020102Z 08009KT 04/M03 A304 RMK A01 T00371029  RH  062%=      5-min Rain = 0
KKE1 020103Z 08008KT 04/M03 A304 RMK A01 T00361030  RH  062%=      5-min Rain = 0
KKE1 020104Z 08008KT 04/M03 A304 RMK A01 T00361030  RH  062%=      5-min Rain = 0
KKE1 020105Z 07008KT 04/M03 A304 RMK A01 T00351030  RH  062%=      5-min Rain = 0
KKE1 020106Z 07007KT 04/M03 A304 RMK A01 T00351031  RH  062%=      5-min Rain = 0
KKE1 020107Z 09006KT 04/M03 A304 RMK A01 T00351031  RH  062%=      5-min Rain = 0
KKE1 020108Z 09005KT 04/M03 A304 RMK A01 T00351030  RH  062%=      5-min Rain = 0
KKE1 020109Z 09005KT 04/M03 A304 RMK A01 T00351029  RH  063%=      5-min Rain = 0
KKE1 020110Z 09007KT 03/M03 A304 RMK A01 T00341030  RH  063%=      5-min Rain = 0
KKE1 020111Z 09006KT 03/M03 A304 RMK A01 T00341030  RH  063%=      5-min Rain = 0
KKE1 020112Z 09006KT 03/M03 A304 RMK A01 T00341030  RH  063%=      5-min Rain = 0
KKE1 020113Z 08007KT 03/M03 A304 RMK A01 T00331030  RH  063%=      5-min Rain = 0
KKE1 020114Z 09006KT 03/M03 A304 RMK A01 T00331030  RH  063%=      5-min Rain = 0
KKE1 020115Z 09006KT 03/M03 A304 RMK A01 T00321030  RH  063%=      5-min Rain = 0
KKE1 020116Z 09006KT 03/M03 A304 RMK A01 T00321030  RH  064%=      5-min Rain = 0
KKE1 020117Z 09005KT 03/M03 A304 RMK A01 T00321029  RH  064%=      5-min Rain = 0
KKE1 020118Z 10005KT 03/M03 A304 RMK A01 T00321030  RH  064%=      5-min Rain = 0
KKE1 020119Z 10005KT 03/M03 A304 RMK A01 T00321029  RH  064%=      5-min Rain = 0
KKE1 020120Z 11005KT 03/M03 A304 RMK A01 T00321029  RH  065%=      5-min Rain = 0
KKE1 020121Z 10006KT 03/M03 A304 RMK A01 T00311028  RH  065%=      5-min Rain = 0
KKE1 020122Z 09006KT 03/M03 A304 RMK A01 T00311028  RH  065%=      5-min Rain = 0
KKE1 020123Z 10006KT 03/M03 A304 RMK A01 T00311028  RH  065%=      5-min Rain = 0
KKE1 020124Z 10005KT 03/M03 A304 RMK A01 T00311027  RH  066%=      5-min Rain = 0
KKE1 020125Z 10005KT 03/M03 A304 RMK A01 T00311027  RH  066%=      5-min Rain = 0
KKE1 020126Z 10005KT 03/M03 A304 RMK A01 T00301027  RH  066%=      5-min Rain = 0
KKE1 020127Z 11004KT 03/M03 A304 RMK A01 T00301027  RH  066%=      5-min Rain = 0
KKE1 020128Z 10004KT 03/M03 A304 RMK A01 T00301027  RH  066%=      5-min Rain = 0
KKE1 020129Z 11005KT 03/M03 A304 RMK A01 T00291028  RH  066%=      5-min Rain = 0
KKE1 020130Z 10004KT 03/M03 A304 RMK A01 T00291028  RH  066%=      5-min Rain = 0
KKE1 020131Z 10005KT 03/M03 A304 RMK A01 T00291028  RH  066%=      5-min Rain = 0
KKE1 020132Z 10005KT 03/M03 A304 RMK A01 T00281028  RH  067%=      5-min Rain = 0
KKE1 020133Z 09005KT 03/M03 A304 RMK A01 T00281028  RH  067%=      5-min Rain = 0
KKE1 020134Z 09005KT 03/M03 A304 RMK A01 T00281028  RH  067%=      5-min Rain = 0
KKE1 020135Z 10005KT 03/M03 A304 RMK A01 T00281027  RH  067%=      5-min Rain = 0
KKE1 020136Z 10005KT 03/M03 A304 RMK A01 T00281027  RH  067%=      5-min Rain = 0
KKE1 020137Z 10005KT 03/M03 A304 RMK A01 T00281028  RH  067%=      5-min Rain = 0
KKE1 020138Z 10004KT 03/M03 A304 RMK A01 T00281027  RH  067%=      5-min Rain = 0
KKE1 020139Z 10005KT 03/M03 A3039 RMK A01 T00271028  RH  067%=      5-min Rain = 0
KKE1 020140Z 10005KT 03/M03 A3039 RMK A01 T00271028  RH  067%=      5-min Rain = 0
KKE1 020141Z 10005KT 03/M03 A3039 RMK A01 T00271028  RH  067%=      5-min Rain = 0
KKE1 020142Z 10004KT 03/M03 A3039 RMK A01 T00271028  RH  067%=      5-min Rain = 0
KKE1 020143Z 10004KT 03/M03 A304 RMK A01 T00261028  RH  067%=      5-min Rain = 0
KKE1 020144Z 09005KT 03/M03 A304 RMK A01 T00261028  RH  067%=      5-min Rain = 0
KKE1 020145Z 09005KT 03/M03 A304 RMK A01 T00261029  RH  067%=      5-min Rain = 0
KKE1 020146Z 08004KT 03/M03 A304 RMK A01 T00261029  RH  067%=      5-min Rain = 0
KKE1 020147Z 08004KT 03/M03 A304 RMK A01 T00251030  RH  067%=      5-min Rain = 0
KKE1 020148Z 08003KT 03/M03 A304 RMK A01 T00251029  RH  067%=      5-min Rain = 0
KKE1 020149Z 08004KT 03/M03 A304 RMK A01 T00251029  RH  067%=      5-min Rain = 0
KKE1 020150Z 09005KT 03/M03 A304 RMK A01 T00251030  RH  067%=      5-min Rain = 0
KKE1 020151Z 09006KT 03/M03 A304 RMK A01 T00251030  RH  067%=      5-min Rain = 0
KKE1 020152Z 10005KT 02/M03 A304 RMK A01 T00241030  RH  067%=      5-min Rain = 0
KKE1 020153Z 10005KT 02/M03 A304 RMK A01 T00241030  RH  068%=      5-min Rain = 0
KKE1 020154Z 10005KT 02/M03 A304 RMK A01 T00241030  RH  067%=      5-min Rain = 0
KKE1 020155Z 11005KT 02/M03 A304 RMK A01 T00231031  RH  068%=      5-min Rain = 0
KKE1 020156Z 10006KT 02/M03 A304 RMK A01 T00231031  RH  068%=      5-min Rain = 0
KKE1 020157Z 10005KT 02/M03 A304 RMK A01 T00231031  RH  068%=      5-min Rain = 0
KKE1 020158Z 10005KT 02/M03 A304 RMK A01 T00221031  RH  068%=      5-min Rain = 0
KKE1 020159Z 10005KT 02/M03 A3039 RMK A01 T00231031  RH  068%=      5-min Rain = 0
KKE1 020200Z 10005KT 02/M03 A3039 RMK A01 T00221031  RH  068%=      5-min Rain = 0
KKE1 020201Z 11005KT 02/M03 A3039 RMK A01 T00221031  RH  068%=      5-min Rain = 0
KKE1 020202Z 12005KT 02/M03 A3039 RMK A01 T00221031  RH  068%=      5-min Rain = 0
KKE1 020203Z 12005KT 02/M03 A3039 RMK A01 T00211032  RH  068%=      5-min Rain = 0
KKE1 020204Z 10003KT 02/M03 A3039 RMK A01 T00211032  RH  068%=      5-min Rain = 0
KKE1 020205Z 10003KT 02/M03 A3039 RMK A01 T00201033  RH  068%=      5-min Rain = 0
KKE1 020206Z 10004KT 02/M03 A3039 RMK A01 T00201033  RH  068%=      5-min Rain = 0
KKE1 020207Z 11004KT 02/M03 A3039 RMK A01 T00191033  RH  069%=      5-min Rain = 0
KKE1 020208Z 09004KT 02/M03 A3039 RMK A01 T00191033  RH  069%=      5-min Rain = 0
KKE1 020209Z 09004KT 02/M03 A3039 RMK A01 T00181033  RH  069%=      5-min Rain = 0
KKE1 020210Z 10004KT 02/M03 A3039 RMK A01 T00181034  RH  069%=      5-min Rain = 0
KKE1 020211Z 09004KT 02/M03 A3039 RMK A01 T00181033  RH  069%=      5-min Rain = 0
KKE1 020212Z 10004KT 02/M03 A3039 RMK A01 T00171033  RH  069%=      5-min Rain = 0
KKE1 020213Z 10004KT 02/M03 A3039 RMK A01 T00171034  RH  069%=      5-min Rain = 0
KKE1 020214Z 11004KT 02/M03 A3039 RMK A01 T00171034  RH  069%=      5-min Rain = 0
KKE1 020215Z 10004KT 02/M03 A3039 RMK A01 T00171034  RH  069%=      5-min Rain = 0
KKE1 020216Z 09004KT 02/M03 A3039 RMK A01 T00171034  RH  069%=      5-min Rain = 0
KKE1 020217Z 09004KT 02/M04 A3039 RMK A01 T00171035  RH  069%=      5-min Rain = 0
KKE1 020218Z 10003KT 02/M04 A3039 RMK A01 T00161035  RH  069%=      5-min Rain = 0
KKE1 020219Z 10003KT 02/M04 A3039 RMK A01 T00161035  RH  069%=      5-min Rain = 0
KKE1 020220Z 11004KT 02/M04 A3039 RMK A01 T00161035  RH  069%=      5-min Rain = 0
KKE1 020221Z 11004KT 02/M04 A3039 RMK A01 T00151036  RH  069%=      5-min Rain = 0
KKE1 020222Z 12005KT 02/M04 A3039 RMK A01 T00151036  RH  069%=      5-min Rain = 0
KKE1 020223Z 12005KT 02/M04 A3039 RMK A01 T00151036  RH  069%=      5-min Rain = 0
KKE1 020224Z 12006KT 01/M04 A3039 RMK A01 T00141036  RH  069%=      5-min Rain = 0
KKE1 020225Z 12005KT 01/M04 A3039 RMK A01 T00141036  RH  069%=      5-min Rain = 0
KKE1 020226Z 12005KT 01/M04 A3039 RMK A01 T00141036  RH  069%=      5-min Rain = 0
KKE1 020227Z 12006KT 02/M04 A3039 RMK A01 T00151036  RH  069%=      5-min Rain = 0
KKE1 020228Z 12005KT 02/M04 A3039 RMK A01 T00151036  RH  069%=      5-min Rain = 0
KKE1 020229Z 12005KT 02/M04 A3039 RMK A01 T00151036  RH  069%=      5-min Rain = 0
KKE1 020230Z 12005KT 02/M04 A3039 RMK A01 T00151036  RH  069%=      5-min Rain = 0
KKE1 020231Z 12005KT 02/M04 A3039 RMK A01 T00151036  RH  069%=      5-min Rain = 0
KKE1 020232Z 11005KT 02/M04 A3039 RMK A01 T00151035  RH  069%=      5-min Rain = 0
KKE1 020233Z 10005KT 02/M04 A3039 RMK A01 T00161035  RH  069%=      5-min Rain = 0
KKE1 020234Z 10005KT 02/M04 A3039 RMK A01 T00161035  RH  069%=      5-min Rain = 0
KKE1 020235Z 09005KT 02/M04 A304 RMK A01 T00151035  RH  069%=      5-min Rain = 0
KKE1 020236Z 09005KT 02/M04 A304 RMK A01 T00151035  RH  070%=      5-min Rain = 0
KKE1 020237Z 09004KT 02/M04 A304 RMK A01 T00151035  RH  070%=      5-min Rain = 0
KKE1 020238Z 09004KT 02/M03 A304 RMK A01 T00151034  RH  070%=      5-min Rain = 0
KKE1 020239Z 08004KT 02/M03 A304 RMK A01 T00151034  RH  070%=      5-min Rain = 0
KKE1 020240Z 08004KT 02/M04 A304 RMK A01 T00151035  RH  070%=      5-min Rain = 0
KKE1 020241Z 08005KT 02/M04 A3039 RMK A01 T00151035  RH  069%=      5-min Rain = 0
KKE1 020242Z 08005KT 01/M04 A3039 RMK A01 T00141036  RH  069%=      5-min Rain = 0
KKE1 020243Z 09004KT 01/M04 A3039 RMK A01 T00131036  RH  069%=      5-min Rain = 0
KKE1 020244Z 09005KT 01/M04 A3039 RMK A01 T00131036  RH  070%=      5-min Rain = 0
KKE1 020245Z 10005KT 01/M04 A3039 RMK A01 T00131035  RH  070%=      5-min Rain = 0
KKE1 020246Z 11005KT 01/M04 A3039 RMK A01 T00131035  RH  070%=      5-min Rain = 0
KKE1 020247Z 11005KT 01/M03 A3039 RMK A01 T00131034  RH  071%=      5-min Rain = 0
KKE1 020248Z 11004KT 01/M03 A3039 RMK A01 T00131034  RH  071%=      5-min Rain = 0
KKE1 020249Z 11006KT 01/M03 A3039 RMK A01 T00131034  RH  071%=      5-min Rain = 0
KKE1 020250Z 12005KT 01/M03 A3039 RMK A01 T00131034  RH  071%=      5-min Rain = 0
KKE1 020251Z 12005KT 01/M03 A3039 RMK A01 T00141033  RH  071%=      5-min Rain = 0
KKE1 020252Z 12004KT 01/M03 A3039 RMK A01 T00141033  RH  071%=      5-min Rain = 0
KKE1 020253Z 11005KT 01/M03 A304 RMK A01 T00141033  RH  071%=      5-min Rain = 0
KKE1 020254Z 10004KT 01/M03 A304 RMK A01 T00141034  RH  071%=      5-min Rain = 0
KKE1 020255Z 11004KT 01/M03 A304 RMK A01 T00131034  RH  071%=      5-min Rain = 0
KKE1 020256Z 12005KT 01/M03 A304 RMK A01 T00131034  RH  071%=      5-min Rain = 0
KKE1 020257Z 12005KT 01/M03 A304 RMK A01 T00131034  RH  071%=      5-min Rain = 0
KKE1 020258Z 12006KT 01/M04 A304 RMK A01 T00121035  RH  071%=      5-min Rain = 0
KKE1 020259Z 13006KT 01/M04 A3039 RMK A01 T00121035  RH  071%=      5-min Rain = 0
KKE1 020300Z 13006KT 01/M04 A3039 RMK A01 T00111035  RH  071%=      5-min Rain = 0
KKE1 020301Z 13005KT 01/M03 A3039 RMK A01 T00111034  RH  071%=      5-min Rain = 0
KKE1 020302Z 13006KT 01/M03 A3039 RMK A01 T00121034  RH  072%=      5-min Rain = 0
KKE1 020303Z 13007KT 01/M03 A3039 RMK A01 T00131033  RH  072%=      5-min Rain = 0
KKE1 020304Z 13007KT 01/M03 A3039 RMK A01 T00141032  RH  072%=      5-min Rain = 0
KKE1 020305Z 14008KT 02/M03 A3039 RMK A01 T00151031  RH  071%=      5-min Rain = 0
KKE1 020306Z 13007KT 02/M03 A3039 RMK A01 T00171031  RH  071%=      5-min Rain = 0
KKE1 020307Z 13007KT 02/M03 A3039 RMK A01 T00181031  RH  070%=      5-min Rain = 0
KKE1 020308Z 13008KT 02/M03 A3039 RMK A01 T00181031  RH  070%=      5-min Rain = 0
KKE1 020309Z 14007KT 02/M03 A3039 RMK A01 T00181031  RH  070%=      5-min Rain = 0
KKE1 020310Z 14008KT 02/M03 A3039 RMK A01 T00181031  RH  070%=      5-min Rain = 0
KKE1 020311Z 14007KT 02/M03 A3039 RMK A01 T00181031  RH  070%=      5-min Rain = 0
KKE1 020312Z 14007KT 02/M03 A3039 RMK A01 T00181031  RH  070%=      5-min Rain = 0
KKE1 020313Z 14007KT 02/M03 A3039 RMK A01 T00181031  RH  070%=      5-min Rain = 0
KKE1 020314Z 15007KT 02/M03 A3039 RMK A01 T00181031  RH  070%=      5-min Rain = 0
KKE1 020315Z 14007KT 02/M03 A3039 RMK A01 T00181031  RH  070%=      5-min Rain = 0
KKE1 020316Z 14008KT 02/M03 A3039 RMK A01 T00181031  RH  070%=      5-min Rain = 0
KKE1 020317Z 14007KT 02/M03 A3039 RMK A01 T00181032  RH  070%=      5-min Rain = 0
KKE1 020318Z 15007KT 02/M03 A3039 RMK A01 T00191031  RH  069%=      5-min Rain = 0
KKE1 020319Z 14006KT 02/M03 A3039 RMK A01 T00191031  RH  069%=      5-min Rain = 0
KKE1 020320Z 14007KT 02/M03 A3039 RMK A01 T00191032  RH  069%=      5-min Rain = 0
KKE1 020321Z 13007KT 02/M03 A3039 RMK A01 T00191032  RH  069%=      5-min Rain = 0
KKE1 020322Z 13006KT 02/M03 A3039 RMK A01 T00191032  RH  069%=      5-min Rain = 0
KKE1 020323Z 13006KT 02/M03 A3039 RMK A01 T00201032  RH  069%=      5-min Rain = 0
KKE1 020324Z 12006KT 02/M03 A3039 RMK A01 T00191032  RH  069%=      5-min Rain = 0
KKE1 020325Z 11004KT 02/M03 A3039 RMK A01 T00191034  RH  068%=      5-min Rain = 0
KKE1 020326Z 11005KT 02/M03 A3039 RMK A01 T00191033  RH  068%=      5-min Rain = 0
KKE1 020327Z 11005KT 02/M03 A3039 RMK A01 T00181033  RH  068%=      5-min Rain = 0
KKE1 020328Z 12004KT 02/M03 A3039 RMK A01 T00181034  RH  069%=      5-min Rain = 0
KKE1 020329Z 13003KT 02/M03 A3039 RMK A01 T00171034  RH  069%=      5-min Rain = 0
KKE1 020330Z 13003KT 02/M04 A3039 RMK A01 T00171035  RH  069%=      5-min Rain = 0
KKE1 020331Z 14003KT 02/M04 A3039 RMK A01 T00161035  RH  068%=      5-min Rain = 0
KKE1 020332Z 14005KT 02/M04 A3039 RMK A01 T00161037  RH  068%=      5-min Rain = 0
KKE1 020333Z 14005KT 02/M04 A3039 RMK A01 T00171039  RH  066%=      5-min Rain = 0
KKE1 020334Z 14006KT 02/M04 A3039 RMK A01 T00181040  RH  065%=      5-min Rain = 0
KKE1 020335Z 13006KT 02/M04 A3039 RMK A01 T00181042  RH  064%=      5-min Rain = 0
KKE1 020336Z 14006KT 02/M04 A3039 RMK A01 T00201042  RH  063%=      5-min Rain = 0
KKE1 020337Z 14006KT 02/M04 A3039 RMK A01 T00211043  RH  063%=      5-min Rain = 0
KKE1 020338Z 13008KT 02/M04 A3039 RMK A01 T00221044  RH  062%=      5-min Rain = 0
KKE1 020339Z 14007KT 02/M04 A3039 RMK A01 T00221044  RH  061%=      5-min Rain = 0
KKE1 020340Z 14007KT 02/M05 A3039 RMK A01 T00221045  RH  061%=      5-min Rain = 0
KKE1 020341Z 13007KT 02/M04 A3039 RMK A01 T00231044  RH  061%=      5-min Rain = 0
KKE1 020342Z 15006KT 02/M04 A3039 RMK A01 T00231044  RH  061%=      5-min Rain = 0
KKE1 020343Z 15007KT 02/M05 A3039 RMK A01 T00231045  RH  061%=      5-min Rain = 0
KKE1 020344Z 15007KT 02/M05 A304 RMK A01 T00231046  RH  061%=      5-min Rain = 0
KKE1 020345Z 14006KT 02/M05 A304 RMK A01 T00221046  RH  060%=      5-min Rain = 0
KKE1 020346Z 14005KT 02/M05 A304 RMK A01 T00231047  RH  060%=      5-min Rain = 0
KKE1 020347Z 14005KT 02/M05 A304 RMK A01 T00231049  RH  059%=      5-min Rain = 0
KKE1 020348Z 14005KT 02/M05 A304 RMK A01 T00231050  RH  059%=      5-min Rain = 0
KKE1 020349Z 13006KT 02/M05 A304 RMK A01 T00231050  RH  058%=      5-min Rain = 0
KKE1 020350Z 13005KT 02/M05 A304 RMK A01 T00231051  RH  058%=      5-min Rain = 0
KKE1 020351Z 14006KT 02/M05 A304 RMK A01 T00231051  RH  058%=      5-min Rain = 0
KKE1 020352Z 14006KT 02/M05 A304 RMK A01 T00231052  RH  057%=      5-min Rain = 0
KKE1 020353Z 15006KT 02/M05 A304 RMK A01 T00241053  RH  057%=      5-min Rain = 0
KKE1 020354Z 14005KT 02/M05 A304 RMK A01 T00241053  RH  056%=      5-min Rain = 0
KKE1 020355Z 14005KT 03/M05 A304 RMK A01 T00251053  RH  056%=      5-min Rain = 0
KKE1 020356Z 14005KT 03/M05 A304 RMK A01 T00251053  RH  056%=      5-min Rain = 0
KKE1 020357Z 14004KT 02/M05 A304 RMK A01 T00241053  RH  057%=      5-min Rain = 0
KKE1 020358Z 14005KT 02/M05 A304 RMK A01 T00241053  RH  057%=      5-min Rain = 0
KKE1 020359Z 14005KT 02/M05 A304 RMK A01 T00241053  RH  057%=      5-min Rain = 0
KKE1 020400Z 14004KT 02/M05 A304 RMK A01 T00241052  RH  057%=      5-min Rain = 0
KKE1 020401Z 14004KT 02/M05 A304 RMK A01 T00231052  RH  057%=      5-min Rain = 0
KKE1 020402Z 14003KT 02/M05 A304 RMK A01 T00231052  RH  058%=      5-min Rain = 0
KKE1 020403Z 13004KT 02/M05 A304 RMK A01 T00221053  RH  058%=      5-min Rain = 0
KKE1 020404Z 13004KT 02/M05 A304 RMK A01 T00221053  RH  058%=      5-min Rain = 0
KKE1 020405Z 13003KT 02/M05 A304 RMK A01 T00211054  RH  058%=      5-min Rain = 0
KKE1 020406Z 12003KT 02/M05 A304 RMK A01 T00211054  RH  058%=      5-min Rain = 0
KKE1 020407Z 12003KT 02/M05 A304 RMK A01 T00211053  RH  058%=      5-min Rain = 0
KKE1 020408Z 13003KT 02/M05 A304 RMK A01 T00201054  RH  058%=      5-min Rain = 0
KKE1 020409Z 11003KT 02/M05 A3039 RMK A01 T00201054  RH  058%=      5-min Rain = 0
KKE1 020410Z 11002KT 02/M05 A3039 RMK A01 T00201053  RH  059%=      5-min Rain = 0
KKE1 020411Z 11003KT 02/M05 A3039 RMK A01 T00191053  RH  059%=      5-min Rain = 0
KKE1 020412Z 11003KT 02/M05 A3039 RMK A01 T00181052  RH  060%=      5-min Rain = 0
KKE1 020413Z 12004KT 02/M05 A3039 RMK A01 T00181051  RH  060%=      5-min Rain = 0
KKE1 020414Z 12005KT 02/M05 A3039 RMK A01 T00181052  RH  060%=      5-min Rain = 0
KKE1 020415Z 13006KT 02/M05 A3039 RMK A01 T00171053  RH  060%=      5-min Rain = 0
KKE1 020416Z 13006KT 02/M06 A3039 RMK A01 T00171055  RH  059%=      5-min Rain = 0
KKE1 020417Z 13006KT 02/M06 A3039 RMK A01 T00171056  RH  059%=      5-min Rain = 0
KKE1 020418Z 13006KT 02/M06 A3039 RMK A01 T00181056  RH  058%=      5-min Rain = 0
KKE1 020419Z 13007KT 02/M06 A3039 RMK A01 T00191055  RH  058%=      5-min Rain = 0
KKE1 020420Z 13006KT 02/M06 A3039 RMK A01 T00201055  RH  057%=      5-min Rain = 0
KKE1 020421Z 13005KT 02/M06 A3039 RMK A01 T00201056  RH  057%=      5-min Rain = 0
KKE1 020422Z 12004KT 02/M06 A304 RMK A01 T00201057  RH  057%=      5-min Rain = 0
KKE1 020423Z 12006KT 02/M06 A3039 RMK A01 T00201057  RH  056%=      5-min Rain = 0
KKE1 020424Z 13005KT 02/M06 A3039 RMK A01 T00201057  RH  056%=      5-min Rain = 0
KKE1 020425Z 13005KT 02/M06 A3039 RMK A01 T00201059  RH  056%=      5-min Rain = 0
KKE1 020426Z 12006KT 02/M06 A3039 RMK A01 T00201060  RH  056%=      5-min Rain = 0
KKE1 020427Z 12006KT 02/M06 A3039 RMK A01 T00211060  RH  055%=      5-min Rain = 0
KKE1 020428Z 12005KT 02/M06 A3039 RMK A01 T00211061  RH  055%=      5-min Rain = 0
KKE1 020429Z 11005KT 02/M06 A3039 RMK A01 T00221061  RH  054%=      5-min Rain = 0
KKE1 020430Z 10004KT 02/M06 A3039 RMK A01 T00221061  RH  054%=      5-min Rain = 0
KKE1 020431Z 11004KT 02/M06 A3039 RMK A01 T00201062  RH  055%=      5-min Rain = 0
KKE1 020432Z 11004KT 02/M06 A3039 RMK A01 T00191061  RH  055%=      5-min Rain = 0
KKE1 020433Z 11004KT 02/M06 A3039 RMK A01 T00181061  RH  055%=      5-min Rain = 0
KKE1 020434Z 11003KT 02/M06 A3039 RMK A01 T00181061  RH  056%=      5-min Rain = 0
KKE1 020435Z 10003KT 02/M06 A3039 RMK A01 T00181061  RH  056%=      5-min Rain = 0
KKE1 020436Z 10003KT 02/M06 A3039 RMK A01 T00181061  RH  056%=      5-min Rain = 0
KKE1 020437Z 11003KT 02/M06 A3039 RMK A01 T00171061  RH  056%=      5-min Rain = 0
KKE1 020438Z 13004KT 02/M06 A3039 RMK A01 T00171062  RH  056%=      5-min Rain = 0
KKE1 020439Z 13005KT 02/M06 A3039 RMK A01 T00171063  RH  056%=      5-min Rain = 0
KKE1 020440Z 12005KT 02/M07 A3039 RMK A01 T00171065  RH  055%=      5-min Rain = 0
KKE1 020441Z 12005KT 02/M07 A3039 RMK A01 T00181066  RH  054%=      5-min Rain = 0
KKE1 020442Z 12005KT 02/M07 A3039 RMK A01 T00181066  RH  054%=      5-min Rain = 0
KKE1 020443Z 12005KT 02/M07 A3039 RMK A01 T00181066  RH  054%=      5-min Rain = 0
KKE1 020444Z 11006KT 02/M07 A3039 RMK A01 T00181066  RH  053%=      5-min Rain = 0
KKE1 020445Z 12004KT 02/M07 A3039 RMK A01 T00191066  RH  053%=      5-min Rain = 0
KKE1 020446Z 10004KT 02/M07 A3039 RMK A01 T00191066  RH  053%=      5-min Rain = 0
KKE1 020447Z 09003KT 02/M07 A3039 RMK A01 T00191066  RH  053%=      5-min Rain = 0
KKE1 020448Z 10003KT 02/M07 A3039 RMK A01 T00181066  RH  054%=      5-min Rain = 0
KKE1 020449Z 11003KT 02/M07 A3039 RMK A01 T00181066  RH  054%=      5-min Rain = 0
KKE1 020450Z 13003KT 02/M07 A3039 RMK A01 T00171066  RH  054%=      5-min Rain = 0
KKE1 020451Z 13004KT 02/M07 A3039 RMK A01 T00161067  RH  054%=      5-min Rain = 0
KKE1 020452Z 13004KT 02/M07 A3039 RMK A01 T00161067  RH  054%=      5-min Rain = 0
KKE1 020453Z 13004KT 02/M07 A3039 RMK A01 T00161068  RH  053%=      5-min Rain = 0
KKE1 020454Z 13004KT 02/M07 A3039 RMK A01 T00171069  RH  053%=      5-min Rain = 0
KKE1 020455Z 13004KT 02/M07 A3039 RMK A01 T00181068  RH  053%=      5-min Rain = 0
KKE1 020456Z 13004KT 02/M07 A3039 RMK A01 T00191069  RH  052%=      5-min Rain = 0
KKE1 020457Z 12005KT 02/M07 A3039 RMK A01 T00191069  RH  052%=      5-min Rain = 0
KKE1 020458Z 12004KT 02/M07 A3039 RMK A01 T00191069  RH  052%=      5-min Rain = 0
KKE1 020459Z 12003KT 02/M07 A3039 RMK A01 T00191070  RH  052%=      5-min Rain = 0
KKE1 020500Z 12003KT 02/M07 A3039 RMK A01 T00191070  RH  052%=      5-min Rain = 0
KKE1 020501Z 13003KT 02/M07 A3039 RMK A01 T00191070  RH  052%=      5-min Rain = 0
KKE1 020502Z 13004KT 02/M07 A3039 RMK A01 T00191070  RH  052%=      5-min Rain = 0
KKE1 020503Z 12004KT 02/M07 A3039 RMK A01 T00191070  RH  052%=      5-min Rain = 0
KKE1 020504Z 12004KT 02/M07 A3039 RMK A01 T00191070  RH  052%=      5-min Rain = 0
KKE1 020505Z 13004KT 02/M07 A3039 RMK A01 T00191071  RH  052%=      5-min Rain = 0
KKE1 020506Z 12004KT 02/M07 A3039 RMK A01 T00191071  RH  051%=      5-min Rain = 0
KKE1 020507Z 12003KT 02/M07 A3039 RMK A01 T00191071  RH  051%=      5-min Rain = 0
KKE1 020508Z 12004KT 02/M07 A3039 RMK A01 T00191071  RH  051%=      5-min Rain = 0
KKE1 020509Z 08002KT 02/M07 A3039 RMK A01 T00201071  RH  051%=      5-min Rain = 0
KKE1 020510Z 08004KT 02/M07 A3039 RMK A01 T00201071  RH  051%=      5-min Rain = 0
KKE1 020511Z 08003KT 02/M07 A3039 RMK A01 T00201071  RH  051%=      5-min Rain = 0
KKE1 020512Z 09003KT 02/M07 A3039 RMK A01 T00191071  RH  052%=      5-min Rain = 0
KKE1 020513Z 10004KT 02/M07 A3039 RMK A01 T00181071  RH  052%=      5-min Rain = 0
KKE1 020514Z 10003KT 02/M07 A3039 RMK A01 T00181070  RH  052%=      5-min Rain = 0
KKE1 020515Z 10003KT 02/M07 A3039 RMK A01 T00181070  RH  052%=      5-min Rain = 0
KKE1 020516Z 11003KT 02/M07 A3039 RMK A01 T00181070  RH  052%=      5-min Rain = 0
KKE1 020517Z 11005KT 02/M07 A3039 RMK A01 T00171070  RH  052%=      5-min Rain = 0
KKE1 020518Z 11004KT 02/M07 A3039 RMK A01 T00161070  RH  053%=      5-min Rain = 0
KKE1 020519Z 12005KT 02/M07 A3039 RMK A01 T00151071  RH  053%=      5-min Rain = 0
KKE1 020520Z 11006KT 01/M07 A3039 RMK A01 T00141071  RH  053%=      5-min Rain = 0
KKE1 020521Z 12006KT 01/M07 A3039 RMK A01 T00141071  RH  053%=      5-min Rain = 0
KKE1 020522Z 13006KT 01/M07 A3039 RMK A01 T00141071  RH  053%=      5-min Rain = 0
KKE1 020523Z 14006KT 01/M07 A3039 RMK A01 T00141071  RH  053%=      5-min Rain = 0
KKE1 020524Z 14007KT 02/M07 A3038 RMK A01 T00151070  RH  053%=      5-min Rain = 0
KKE1 020525Z 13007KT 02/M07 A3038 RMK A01 T00171071  RH  052%=      5-min Rain = 0
KKE1 020526Z 13006KT 02/M07 A3038 RMK A01 T00191072  RH  051%=      5-min Rain = 0
KKE1 020527Z 12005KT 02/M07 A3039 RMK A01 T00221073  RH  050%=      5-min Rain = 0
KKE1 020528Z 10003KT 02/M07 A3038 RMK A01 T00231073  RH  049%=      5-min Rain = 0
KKE1 020529Z 07002KT 02/M07 A3038 RMK A01 T00221073  RH  050%=      5-min Rain = 0
KKE1 020530Z 09002KT 02/M07 A3038 RMK A01 T00201073  RH  050%=      5-min Rain = 0
KKE1 020531Z 08002KT 02/M07 A3038 RMK A01 T00181073  RH  051%=      5-min Rain = 0
KKE1 020532Z 09003KT 02/M07 A3038 RMK A01 T00171072  RH  052%=      5-min Rain = 0
KKE1 020533Z 10003KT 02/M07 A3038 RMK A01 T00161072  RH  052%=      5-min Rain = 0
KKE1 020534Z 11004KT 02/M07 A3038 RMK A01 T00161072  RH  052%=      5-min Rain = 0
KKE1 020535Z 10004KT 02/M07 A3038 RMK A01 T00161073  RH  052%=      5-min Rain = 0
KKE1 020536Z 11005KT 02/M07 A3038 RMK A01 T00161074  RH  051%=      5-min Rain = 0
KKE1 020537Z 12005KT 02/M07 A3038 RMK A01 T00161074  RH  051%=      5-min Rain = 0
KKE1 020538Z 13006KT 02/M07 A3038 RMK A01 T00161074  RH  051%=      5-min Rain = 0
KKE1 020539Z 13007KT 02/M07 A3038 RMK A01 T00181074  RH  051%=      5-min Rain = 0
KKE1 020540Z 13006KT 02/M08 A3038 RMK A01 T00191075  RH  050%=      5-min Rain = 0
KKE1 020541Z 12006KT 02/M08 A3038 RMK A01 T00211075  RH  049%=      5-min Rain = 0
KKE1 020542Z 12006KT 02/M08 A3038 RMK A01 T00211076  RH  049%=      5-min Rain = 0
KKE1 020543Z 11005KT 02/M08 A3038 RMK A01 T00211076  RH  049%=      5-min Rain = 0
KKE1 020544Z 12005KT 02/M08 A3038 RMK A01 T00201076  RH  049%=      5-min Rain = 0
KKE1 020545Z 12005KT 02/M08 A3038 RMK A01 T00191076  RH  049%=      5-min Rain = 0
KKE1 020546Z 12004KT 02/M08 A3038 RMK A01 T00191076  RH  049%=      5-min Rain = 0
KKE1 020547Z 12004KT 02/M08 A3038 RMK A01 T00181076  RH  049%=      5-min Rain = 0
KKE1 020548Z 12004KT 02/M08 A3038 RMK A01 T00181076  RH  050%=      5-min Rain = 0
KKE1 020549Z 12003KT 02/M08 A3037 RMK A01 T00181076  RH  050%=      5-min Rain = 0
KKE1 020550Z 09003KT 02/M08 A3037 RMK A01 T00171077  RH  050%=      5-min Rain = 0
KKE1 020551Z 09002KT 02/M08 A3037 RMK A01 T00171077  RH  050%=      5-min Rain = 0
KKE1 020552Z 09002KT 02/M08 A3037 RMK A01 T00161076  RH  050%=      5-min Rain = 0
KKE1 020553Z 09003KT 02/M08 A3037 RMK A01 T00151076  RH  051%=      5-min Rain = 0
KKE1 020554Z 11003KT 01/M08 A3037 RMK A01 T00141076  RH  051%=      5-min Rain = 0
KKE1 020555Z 11004KT 01/M08 A3037 RMK A01 T00131075  RH  052%=      5-min Rain = 0
KKE1 020556Z 10004KT 01/M08 A3037 RMK A01 T00131075  RH  052%=      5-min Rain = 0
KKE1 020557Z 10003KT 01/M08 A3037 RMK A01 T00121075  RH  052%=      5-min Rain = 0
KKE1 020558Z 09003KT 01/M08 A3037 RMK A01 T00111075  RH  053%=      5-min Rain = 0
KKE1 020559Z 10004KT 01/M08 A3037 RMK A01 T00101075  RH  053%=      5-min Rain = 0

Page generated in 0.1487 seconds.